SondeTracker

Meteorological Radiosondes Database

Operations

Sounding was ended - last measurement: 2022-12-06 13:43:06z

MAP
About Radiosonde

Number: D22037119 (22037119)

Launch Site: Blacksburg [VA] (US)

Type: DFM17

AUX: NO

Frequency: 404.011 MHz

Max Speed: 180 km/h at 13241 m

Average Speed: 87.51 km/h

Max Altitude: 30851 m

Average Ascent Speed: 4.50 m/s

Average Descent Speed: 22.36 m/s

Status: UNKNOWN

Status Changes
Launch Site Type AUX Frequency Status Finder Landing Point Description Changes made by
APRS Statistics

Received Frames: 646

First Frame [UTC]: 2022-12-06 11:35:18z

Last Frame [UTC]: 2022-12-06 13:43:06z

Receivers: KD4EG-15, KG4IFE-1, W4DEX-14, W4KZK-14

Flight Time: 02:07:48 h

Distance From First Measurement: 199.69 km

Nearest City: Brandermill [VA] (US) [65.09 km]

Nearest Hunter: [0.00 km]

Ground Altitude: 115 m

Distance from QTH: 0.00 km

APRS Data
Receiver Number Date/Time [UTC] φ λ Course [°] Speed [km/h] Altitude [m] Description
W4DEX-14D220371192022-12-06 13:43:0637.0099-78.158880524264Clb=-11.9m/s Type=DFM17 ser=[BC]22037119 Details on http://radiosondy.info
W4DEX-14D220371192022-12-06 13:42:5137.0096-78.161282544447Clb=-11.4m/s Type=DFM17 ser=[BC]22037119 Details on http://radiosondy.info
W4DEX-14D220371192022-12-06 13:42:3637.0093-78.163782544617Clb=-11.3m/s Type=DFM17 ser=[BC]22037119 Details on http://radiosondy.info
W4DEX-14D220371192022-12-06 13:42:2137.009-78.166182484789Clb=-11.3m/s Type=DFM17 ser=[BC]22037119 Details on http://radiosondy.info
W4DEX-14D220371192022-12-06 13:42:0637.0088-78.168489484959Clb=-11.0m/s Type=DFM17 ser=[BC]22037119 Details on http://radiosondy.info
W4DEX-14D220371192022-12-06 13:41:5137.0089-78.170692505131Clb=-11.8m/s Type=DFM17 ser=[BC]22037119 Details on http://radiosondy.info
W4DEX-14D220371192022-12-06 13:41:3637.009-78.17394465303Clb=-11.6m/s Type=DFM17 ser=[BC]22037119 Details on http://radiosondy.info
W4DEX-14D220371192022-12-06 13:41:2137.0091-78.175194435481Clb=-11.8m/s Type=DFM17 ser=[BC]22037119 Details on http://radiosondy.info
W4DEX-14D220371192022-12-06 13:41:0637.0092-78.177194485655Clb=-11.9m/s Type=DFM17 ser=[BC]22037119 Details on http://radiosondy.info
W4DEX-14D220371192022-12-06 13:40:5137.0094-78.179398525824Clb=-11.7m/s Type=DFM17 ser=[BC]22037119 Details on http://radiosondy.info
W4DEX-14D220371192022-12-06 13:40:3637.0097-78.1817103575995Clb=-11.9m/s Type=DFM17 ser=[BC]22037119 Details on http://radiosondy.info
W4DEX-14D220371192022-12-06 13:40:2237.0102-78.1844106656165Clb=-11.4m/s Type=DFM17 ser=[BC]22037119 Details on http://radiosondy.info
W4DEX-14D220371192022-12-06 13:40:1037.0108-78.1873101696339Clb=-11.9m/s Type=DFM17 ser=[BC]22037119 Details on http://radiosondy.info
W4DEX-14D220371192022-12-06 13:39:5137.0112-78.1905100726517Clb=-11.7m/s Type=DFM17 ser=[BC]22037119 Details on http://radiosondy.info
W4DEX-14D220371192022-12-06 13:39:3637.0117-78.1938103786696Clb=-11.8m/s Type=DFM17 ser=[BC]22037119 Details on http://radiosondy.info
W4DEX-14D220371192022-12-06 13:39:2137.0124-78.1973108896905Clb=-14.7m/s Type=DFM17 ser=[BC]22037119 Details on http://radiosondy.info
W4DEX-14D220371192022-12-06 13:39:0637.0133-78.2013100937126Clb=-14.1m/s Type=DFM17 ser=[BC]22037119 Details on http://radiosondy.info
W4DEX-14D220371192022-12-06 13:38:5137.0137-78.205798967321Clb=-13.6m/s Type=DFM17 ser=[BC]22037119 Details on http://radiosondy.info
W4DEX-14D220371192022-12-06 13:38:3637.014-78.210193917517Clb=-12.9m/s Type=DFM17 ser=[BC]22037119 Details on http://radiosondy.info
W4DEX-14D220371192022-12-06 13:38:2137.0143-78.214497897730Clb=-15.5m/s Type=DFM17 ser=[BC]22037119 Details on http://radiosondy.info
W4DEX-14D220371192022-12-06 13:38:0637.0147-78.2185101897951Clb=-14.5m/s Type=DFM17 ser=[BC]22037119 Details on http://radiosondy.info
W4DEX-14D220371192022-12-06 13:37:5137.0154-78.2225106878176Clb=-15.1m/s Type=DFM17 ser=[BC]22037119 Details on http://radiosondy.info
W4DEX-14D220371192022-12-06 13:37:3637.0162-78.2265106918412Clb=-16.1m/s Type=DFM17 ser=[BC]22037119 Details on http://radiosondy.info
W4DEX-14D220371192022-12-06 13:37:2137.0171-78.2306105988648Clb=-15.9m/s Type=DFM17 ser=[BC]22037119 Details on http://radiosondy.info
W4DEX-14D220371192022-12-06 13:37:0637.018-78.23511051118871Clb=-14.5m/s Type=DFM17 ser=[BC]22037119 Details on http://radiosondy.info
W4DEX-14D220371192022-12-06 13:36:5137.0191-78.24011061179090Clb=-13.9m/s Type=DFM17 ser=[BC]22037119 Details on http://radiosondy.info
W4DEX-14D220371192022-12-06 13:36:3637.0202-78.24551061179309Clb=-14.7m/s Type=DFM17 ser=[BC]22037119 Details on http://radiosondy.info
W4DEX-14D220371192022-12-06 13:36:2137.0214-78.25061081159527Clb=-14.0m/s Type=DFM17 ser=[BC]22037119 Details on http://radiosondy.info
W4DEX-14D220371192022-12-06 13:36:0637.0228-78.25571111139741Clb=-15.0m/s Type=DFM17 ser=[BC]22037119 Details on http://radiosondy.info
W4DEX-14D220371192022-12-06 13:35:5137.0244-78.26061121179966Clb=-15.3m/s Type=DFM17 ser=[BC]22037119 Details on http://radiosondy.info
W4DEX-14D220371192022-12-06 13:35:3637.0261-78.265611212010189Clb=-14.8m/s Type=DFM17 ser=[BC]22037119 Details on http://radiosondy.info
W4DEX-14D220371192022-12-06 13:35:2137.0277-78.270911112410415Clb=-14.8m/s Type=DFM17 ser=[BC]22037119 Details on http://radiosondy.info
W4DEX-14D220371192022-12-06 13:35:0637.0294-78.276311213010624Clb=-13.3m/s Type=DFM17 ser=[BC]22037119 Details on http://radiosondy.info
KG4IFE-1D220371192022-12-06 13:34:5537.031-78.281111313110800Clb=-15.0m/s t=-52.3C h=-1.0% p=-1.0hPa 404.010 MHz Type=DFM17 ser=22037119 Radiosonde
W4DEX-14D220371192022-12-06 13:34:5137.0312-78.281911513310845Clb=-15.2m/s Type=DFM17 ser=[BC]22037119 Details on http://radiosondy.info
W4DEX-14D220371192022-12-06 13:34:3637.0333-78.287611513511075Clb=-14.8m/s Type=DFM17 ser=[BC]22037119 Details on http://radiosondy.info
KG4IFE-1D220371192022-12-06 13:34:2337.0352-78.29311413111270Clb=-14.4m/s t=-55.7C h=-1.0% p=-1.0hPa 404.010 MHz Type=DFM17 ser=22037119 Radiosonde
W4DEX-14D220371192022-12-06 13:34:2137.0354-78.293411513311300Clb=-14.3m/s Type=DFM17 ser=[BC]22037119 Details on http://radiosondy.info
W4DEX-14D220371192022-12-06 13:34:0637.0375-78.29911713511521Clb=-14.8m/s Type=DFM17 ser=[BC]22037119 Details on http://radiosondy.info
KG4IFE-1D220371192022-12-06 13:33:5237.0397-78.304711412811728Clb=-14.7m/s t=-58.8C h=-1.0% p=-1.0hPa 404.010 MHz Type=DFM17 ser=22037119 Radiosonde
W4DEX-14D220371192022-12-06 13:33:5137.0397-78.304711512811742Clb=-14.2m/s Type=DFM17 ser=[BC]22037119 Details on http://radiosondy.info
W4DEX-14D220371192022-12-06 13:33:3637.0416-78.310111314311962Clb=-15.0m/s Type=DFM17 ser=[BC]22037119 Details on http://radiosondy.info
KG4IFE-1D220371192022-12-06 13:33:2137.0436-78.316911015012188Clb=-15.2m/s t=-60.5C h=-1.0% p=-1.0hPa 404.010 MHz Type=DFM17 ser=22037119 Radiosonde
W4DEX-14D220371192022-12-06 13:33:0637.0456-78.322611413712418Clb=-15.6m/s Type=DFM17 ser=[BC]22037119 Details on http://radiosondy.info
W4DEX-14D220371192022-12-06 13:32:5137.0474-78.328611114312645Clb=-14.7m/s Type=DFM17 ser=[BC]22037119 Details on http://radiosondy.info
KG4IFE-1D220371192022-12-06 13:32:5037.0476-78.329511014312659Clb=-13.6m/s t=-61.3C h=-1.0% p=-1.0hPa 404.010 MHz Type=DFM17 ser=22037119 Radiosonde
W4DEX-14D220371192022-12-06 13:32:3637.0492-78.334911015012852Clb=-14.8m/s Type=DFM17 ser=[BC]22037119 Details on http://radiosondy.info
W4DEX-14D220371192022-12-06 13:32:2137.0511-78.341511015713078Clb=-14.1m/s Type=DFM17 ser=[BC]22037119 Details on http://radiosondy.info
KG4IFE-1D220371192022-12-06 13:32:1937.0515-78.342910815613109Clb=-15.4m/s t=-62.2C h=-1.0% p=-1.0hPa 404.010 MHz Type=DFM17 ser=22037119 Radiosonde
W4DEX-14D220371192022-12-06 13:32:0637.053-78.348411216513320Clb=-17.1m/s Type=DFM17 ser=[BC]22037119 Details on http://radiosondy.info
W4DEX-14D220371192022-12-06 13:31:5137.0552-78.355611315913558Clb=-15.0m/s Type=DFM17 ser=[BC]22037119 Details on http://radiosondy.info
KG4IFE-1D220371192022-12-06 13:31:4837.0559-78.357511216113600Clb=-16.5m/s t=-63.6C h=-1.0% p=-1.0hPa 404.010 MHz Type=DFM17 ser=22037119 Radiosonde
W4DEX-14D220371192022-12-06 13:31:3637.0576-78.362411515913811Clb=-16.9m/s Type=DFM17 ser=[BC]22037119 Details on http://radiosondy.info
W4DEX-14D220371192022-12-06 13:31:2137.0602-78.369112015014071Clb=-16.5m/s Type=DFM17 ser=[BC]22037119 Details on http://radiosondy.info
KG4IFE-1D220371192022-12-06 13:31:1737.0614-78.371512014814158Clb=-18.4m/s t=-63.6C h=-1.0% p=-1.0hPa 404.010 MHz Type=DFM17 ser=22037119 Radiosonde
W4DEX-14D220371192022-12-06 13:31:0637.063-78.375112113114334Clb=-14.0m/s Type=DFM17 ser=[BC]22037119 Details on http://radiosondy.info
W4DEX-14D220371192022-12-06 13:30:5137.0656-78.380212211114589Clb=-13.5m/s Type=DFM17 ser=[BC]22037119 Details on http://radiosondy.info
KG4IFE-1D220371192022-12-06 13:30:4637.0665-78.382111910914654Clb=-12.8m/s t=-64.6C h=-1.0% p=-1.0hPa 404.010 MHz Type=DFM17 ser=22037119 Radiosonde
W4DEX-14D220371192022-12-06 13:30:3637.0676-78.384711710014783Clb=-12.6m/s Type=DFM17 ser=[BC]22037119 Details on http://radiosondy.info
W4DEX-14D220371192022-12-06 13:30:2137.069-78.389111110614979Clb=-13.1m/s Type=DFM17 ser=[BC]22037119 Details on http://radiosondy.info
KG4IFE-1D220371192022-12-06 13:30:1637.0696-78.391210710615058Clb=-13.3m/s t=-65.1C h=-1.0% p=-1.0hPa 404.010 MHz Type=DFM17 ser=22037119 Radiosonde
W4DEX-14D220371192022-12-06 13:30:0937.0702-78.393810511515174Clb=-13.0m/s Type=DFM17 ser=[BC]22037119 Details on http://radiosondy.info
W4DEX-14D220371192022-12-06 13:29:5137.0713-78.39910511715376Clb=-13.9m/s Type=DFM17 ser=[BC]22037119 Details on http://radiosondy.info
KG4IFE-1D220371192022-12-06 13:29:4437.072-78.401810811515473Clb=-15.4m/s t=-67.0C h=-1.0% p=-1.0hPa 404.010 MHz Type=DFM17 ser=22037119 Radiosonde
W4DEX-14D220371192022-12-06 13:29:3637.0727-78.404111410715608Clb=-19.4m/s Type=DFM17 ser=[BC]22037119 Details on http://radiosondy.info
W4DEX-14D220371192022-12-06 13:29:2137.0745-78.40861179415881Clb=-19.2m/s Type=DFM17 ser=[BC]22037119 Details on http://radiosondy.info
KG4IFE-1D220371192022-12-06 13:29:1337.0755-78.41131099116038Clb=-16.7m/s t=-70.4C h=-1.0% p=-1.0hPa 404.010 MHz Type=DFM17 ser=22037119 Radiosonde
W4DEX-14D220371192022-12-06 13:29:0637.0758-78.41271059316136Clb=-15.0m/s Type=DFM17 ser=[BC]22037119 Details on http://radiosondy.info
W4DEX-14D220371192022-12-06 13:28:5137.0765-78.41699710216404Clb=-14.0m/s Type=DFM17 ser=[BC]22037119 Details on http://radiosondy.info
KG4IFE-1D220371192022-12-06 13:28:4237.0768-78.42039310416540Clb=-13.8m/s t=-70.0C h=-1.0% p=-1.0hPa 404.010 MHz Type=DFM17 ser=22037119 Radiosonde
W4DEX-14D220371192022-12-06 13:28:3637.0769-78.42179611316608Clb=-13.4m/s Type=DFM17 ser=[BC]22037119 Details on http://radiosondy.info
W4DEX-14D220371192022-12-06 13:28:2137.0777-78.42681069816806Clb=-13.4m/s Type=DFM17 ser=[BC]22037119 Details on http://radiosondy.info
KG4IFE-1D220371192022-12-06 13:28:1237.0785-78.4304998916951Clb=-13.6m/s t=-68.2C h=-1.0% p=-1.0hPa 404.010 MHz Type=DFM17 ser=22037119 Radiosonde
W4DEX-14D220371192022-12-06 13:28:0637.0786-78.4312978917006Clb=-13.3m/s Type=DFM17 ser=[BC]22037119 Details on http://radiosondy.info
W4DEX-14D220371192022-12-06 13:27:5137.0786-78.4354878917210Clb=-14.1m/s Type=DFM17 ser=[BC]22037119 Details on http://radiosondy.info
KG4IFE-1D220371192022-12-06 13:27:4037.0786-78.439928017376Clb=-13.7m/s t=-66.6C h=-1.0% p=-1.0hPa 404.010 MHz Type=DFM17 ser=22037119 Radiosonde
W4DEX-14D220371192022-12-06 13:27:3637.0786-78.4395947817417Clb=-13.8m/s Type=DFM17 ser=[BC]22037119 Details on http://radiosondy.info
W4DEX-14D220371192022-12-06 13:27:2137.0788-78.44311016517626Clb=-13.8m/s Type=DFM17 ser=[BC]22037119 Details on http://radiosondy.info
KG4IFE-1D220371192022-12-06 13:27:0837.0793-78.44591005417810Clb=-14.2m/s t=-66.2C h=-1.0% p=-1.0hPa 404.010 MHz Type=DFM17 ser=22037119 Radiosonde
W4DEX-14D220371192022-12-06 13:27:0637.0794-78.446984817839Clb=-14.4m/s Type=DFM17 ser=[BC]22037119 Details on http://radiosondy.info
W4KZK-14D220371192022-12-06 13:27:0437.0794-78.4471914617926Clb=-14.3m/s t=-66.3C h=-1.0% p=-1.0hPa 404.010 MHz Type=DFM17 ser=22037119 Radiosonde
W4DEX-14D220371192022-12-06 13:26:5137.0794-78.4483904818056Clb=-14.7m/s Type=DFM17 ser=[BC]22037119 Details on http://radiosondy.info
KG4IFE-1D220371192022-12-06 13:26:3737.0795-78.4508945718280Clb=-15.5m/s t=-67.6C h=-1.0% p=-1.0hPa 404.010 MHz Type=DFM17 ser=22037119 Radiosonde
W4DEX-14D220371192022-12-06 13:26:3637.0795-78.4506956718280Clb=-15.4m/s Type=DFM17 ser=[BC]22037119 Details on http://radiosondy.info
W4KZK-14D220371192022-12-06 13:26:3137.0798-78.45261057018454Clb=-25.3m/s t=-67.3C h=-1.0% p=-1.0hPa 404.010 MHz Type=DFM17 ser=22037119 Radiosonde
W4DEX-14D220371192022-12-06 13:26:2137.08-78.45361125618590Clb=-24.0m/s Type=DFM17 ser=[BC]22037119 Details on http://radiosondy.info
W4DEX-14D220371192022-12-06 13:26:0637.0809-78.45591133018926Clb=-24.1m/s Type=DFM17 ser=[BC]22037119 Details on http://radiosondy.info
W4KZK-14D220371192022-12-06 13:25:5837.0811-78.45681013019123Clb=-26.6m/s t=-64.1C h=-1.0% p=-1.0hPa 404.010 MHz Type=DFM17 ser=22037119 Radiosonde
W4DEX-14D220371192022-12-06 13:25:5137.0812-78.4573963019271Clb=-26.1m/s Type=DFM17 ser=[BC]22037119 Details on http://radiosondy.info
W4DEX-14D220371192022-12-06 13:25:3937.0812-78.4587863319614Clb=-18.6m/s Type=DFM17 ser=[BC]22037119 Details on http://radiosondy.info
KG4IFE-1D220371192022-12-06 13:25:3837.0812-78.4589854119632Clb=-18.6m/s t=-65.1C h=-1.0% p=-1.0hPa 404.010 MHz Type=DFM17 ser=22037119 Radiosonde
W4DEX-14D220371192022-12-06 13:25:2537.0812-78.46021172219931Clb=-21.7m/s Type=DFM17 ser=[BC]22037119 Details on http://radiosondy.info
W4DEX-14D220371192022-12-06 13:25:0637.0815-78.46121033520220Clb=-16.9m/s Type=DFM17 ser=[BC]22037119 Details on http://radiosondy.info
KG4IFE-1D220371192022-12-06 13:25:0537.0816-78.46151063720254Clb=-16.8m/s t=-63.7C h=-1.0% p=-1.0hPa 404.010 MHz Type=DFM17 ser=22037119 Radiosonde
W4KZK-14D220371192022-12-06 13:24:5237.0818-78.463993320479Clb=-16.5m/s t=-63.7C h=-1.0% p=-1.0hPa 404.010 MHz Type=DFM17 ser=22037119 Radiosonde
W4DEX-14D220371192022-12-06 13:24:5137.0818-78.46291003520480Clb=-16.5m/s Type=DFM17 ser=[BC]22037119 Details on http://radiosondy.info
W4DEX-14D220371192022-12-06 13:24:3737.0822-78.46441052620736Clb=-16.3m/s Type=DFM17 ser=[BC]22037119 Details on http://radiosondy.info
KG4IFE-1D220371192022-12-06 13:24:3537.0822-78.4648912820785Clb=-17.0m/s t=-63.1C h=-1.0% p=-1.0hPa 404.010 MHz Type=DFM17 ser=22037119 Radiosonde
W4DEX-14D220371192022-12-06 13:24:2137.0821-78.4656772220996Clb=-17.4m/s Type=DFM17 ser=[BC]22037119 Details on http://radiosondy.info
W4KZK-14D220371192022-12-06 13:24:1837.0821-78.4658582021048Clb=-17.1m/s t=-62.6C h=-1.0% p=-1.0hPa 404.010 MHz Type=DFM17 ser=22037119 Radiosonde
W4DEX-14D220371192022-12-06 13:24:0837.0818-78.4665702421262Clb=-17.5m/s Type=DFM17 ser=[BC]22037119 Details on http://radiosondy.info
KG4IFE-1D220371192022-12-06 13:24:0437.0816-78.4669542421351Clb=-18.1m/s t=-63.0C h=-1.0% p=-1.0hPa 404.010 MHz Type=DFM17 ser=22037119 Radiosonde
W4DEX-14D220371192022-12-06 13:23:5137.0813-78.4674453021551Clb=-20.9m/s Type=DFM17 ser=[BC]22037119 Details on http://radiosondy.info
W4DEX-14D220371192022-12-06 13:23:3637.0809-78.4687873721864Clb=-22.5m/s Type=DFM17 ser=[BC]22037119 Details on http://radiosondy.info
W4DEX-14D220371192022-12-06 13:23:1737.0626-78.844710116130851Clb=5.7m/s Type=DFM17 ser=[BC]22037119 Details on http://radiosondy.info
KG4IFE-1D220371192022-12-06 13:23:1237.0624-78.84788415730819Clb=6.2m/s t=-45.6C h=-1.0% p=-1.0hPa 404.010 MHz Type=DFM17 ser=22037119 Radiosonde
W4KZK-14D220371192022-12-06 13:23:0337.0624-78.85068715730778Clb=5.3m/s t=-45.7C h=-1.0% p=-1.0hPa 404.010 MHz Type=DFM17 ser=22037119 Radiosonde
W4DEX-14D220371192022-12-06 13:22:5737.0624-78.85219214830755Clb=5.3m/s Type=DFM17 ser=[BC]22037119 Details on http://radiosondy.info
W4DEX-14D220371192022-12-06 13:22:3937.062-78.85898314130658Clb=6.3m/s Type=DFM17 ser=[BC]22037119 Details on http://radiosondy.info
KG4IFE-1D220371192022-12-06 13:22:3137.062-78.86158214630626Clb=7.7m/s t=-47.0C h=-1.0% p=-1.0hPa 404.010 MHz Type=DFM17 ser=22037119 Radiosonde
W4KZK-14D220371192022-12-06 13:22:1837.0618-78.86558415930569Clb=5.5m/s t=-47.3C h=-1.0% p=-1.0hPa 404.010 MHz Type=DFM17 ser=22037119 Radiosonde
W4DEX-14D220371192022-12-06 13:22:1637.0618-78.86558515430563Clb=6.4m/s Type=DFM17 ser=[BC]22037119 Details on http://radiosondy.info
W4DEX-14D220371192022-12-06 13:21:5937.0616-78.87278215630464Clb=7.9m/s Type=DFM17 ser=[BC]22037119 Details on http://radiosondy.info
KG4IFE-1D220371192022-12-06 13:21:5037.0613-78.87658716930421Clb=6.6m/s t=-48.4C h=-1.0% p=-1.0hPa 404.010 MHz Type=DFM17 ser=22037119 Radiosonde
W4DEX-14D220371192022-12-06 13:21:4137.0608-78.87978914830368Clb=6.5m/s Type=DFM17 ser=[BC]22037119 Details on http://radiosondy.info
W4KZK-14D220371192022-12-06 13:21:3937.0608-78.88128016730353Clb=7.2m/s t=-48.7C h=-1.0% p=-1.0hPa 404.010 MHz Type=DFM17 ser=22037119 Radiosonde
W4DEX-14D220371192022-12-06 13:21:2337.0603-78.88679913730266Clb=5.5m/s Type=DFM17 ser=[BC]22037119 Details on http://radiosondy.info
KG4IFE-1D220371192022-12-06 13:21:1337.0601-78.88998713530219Clb=7.8m/s t=-48.5C h=-1.0% p=-1.0hPa 404.010 MHz Type=DFM17 ser=22037119 Radiosonde
W4DEX-14D220371192022-12-06 13:21:0437.06-78.89298312430166Clb=6.2m/s Type=DFM17 ser=[BC]22037119 Details on http://radiosondy.info
W4KZK-14D220371192022-12-06 13:20:5937.0601-78.89528813330131Clb=8.1m/s t=-48.4C h=-1.0% p=-1.0hPa 404.010 MHz Type=DFM17 ser=22037119 Radiosonde
W4DEX-14D220371192022-12-06 13:20:4637.06-78.89878711530058Clb=6.0m/s Type=DFM17 ser=[BC]22037119 Details on http://radiosondy.info
KG4IFE-1D220371192022-12-06 13:20:3537.0598-78.90269211329990Clb=9.0m/s t=-48.9C h=-1.0% p=-1.0hPa 404.010 MHz Type=DFM17 ser=22037119 Radiosonde
W4DEX-14D220371192022-12-06 13:20:2637.06-78.9048711529952Clb=7.3m/s Type=DFM17 ser=[BC]22037119 Details on http://radiosondy.info
W4KZK-14D220371192022-12-06 13:20:1537.0599-78.90718111529895Clb=6.7m/s t=-49.0C h=-1.0% p=-1.0hPa 404.010 MHz Type=DFM17 ser=22037119 Radiosonde
W4DEX-14D220371192022-12-06 13:20:0037.0599-78.90948112229848Clb=9.0m/s Type=DFM17 ser=[BC]22037119 Details on http://radiosondy.info
KG4IFE-1D220371192022-12-06 13:19:4637.0596-78.91357812229777Clb=6.8m/s t=-48.6C h=-1.0% p=-1.0hPa 404.010 MHz Type=DFM17 ser=22037119 Radiosonde
W4DEX-14D220371192022-12-06 13:19:4037.0594-78.9157713029742Clb=7.6m/s Type=DFM17 ser=[BC]22037119 Details on http://radiosondy.info
W4KZK-14D220371192022-12-06 13:19:2437.0587-78.91977613129667Clb=7.2m/s t=-49.8C h=-1.0% p=-1.0hPa 404.010 MHz Type=DFM17 ser=22037119 Radiosonde
W4DEX-14D220371192022-12-06 13:19:1937.0585-78.9217912229640Clb=7.3m/s Type=DFM17 ser=[BC]22037119 Details on http://radiosondy.info
KG4IFE-1D220371192022-12-06 13:19:0437.0576-78.92538112029565Clb=8.3m/s t=-51.3C h=-1.0% p=-1.0hPa 404.010 MHz Type=DFM17 ser=22037119 Radiosonde
W4DEX-14D220371192022-12-06 13:18:5937.0576-78.92657910729541Clb=7.3m/s Type=DFM17 ser=[BC]22037119 Details on http://radiosondy.info
W4KZK-14D220371192022-12-06 13:18:4237.0566-78.93138311129448Clb=6.3m/s t=-51.2C h=-1.0% p=-1.0hPa 404.010 MHz Type=DFM17 ser=22037119 Radiosonde
W4DEX-14D220371192022-12-06 13:18:4137.0566-78.93138310629442Clb=5.5m/s Type=DFM17 ser=[BC]22037119 Details on http://radiosondy.info
KG4IFE-1D220371192022-12-06 13:18:2437.0558-78.93537011329365Clb=6.8m/s t=-50.9C h=-1.0% p=-1.0hPa 404.010 MHz Type=DFM17 ser=22037119 Radiosonde
W4DEX-14D220371192022-12-06 13:18:2037.0557-78.9368111129346Clb=5.0m/s Type=DFM17 ser=[BC]22037119 Details on http://radiosondy.info
W4DEX-14D220371192022-12-06 13:18:0337.0547-78.94117711729253Clb=6.7m/s Type=DFM17 ser=[BC]22037119 Details on http://radiosondy.info
W4KZK-14D220371192022-12-06 13:17:5937.0546-78.94228212229242Clb=4.2m/s t=-51.1C h=-1.0% p=-1.0hPa 404.010 MHz Type=DFM17 ser=22037119 Radiosonde
KG4IFE-1D220371192022-12-06 13:17:4437.054-78.94616711329177Clb=8.8m/s t=-51.6C h=-1.0% p=-1.0hPa 404.010 MHz Type=DFM17 ser=22037119 Radiosonde
W4DEX-14D220371192022-12-06 13:17:3937.0538-78.94646110929166Clb=3.4m/s Type=DFM17 ser=[BC]22037119 Details on http://radiosondy.info
W4DEX-14D220371192022-12-06 13:17:1837.0531-78.95136810729080Clb=3.5m/s Type=DFM17 ser=[BC]22037119 Details on http://radiosondy.info
W4KZK-14D220371192022-12-06 13:17:1137.0531-78.95367613329043Clb=7.7m/s t=-52.3C h=-1.0% p=-1.0hPa 404.010 MHz Type=DFM17 ser=22037119 Radiosonde
KG4IFE-1D220371192022-12-06 13:16:5737.0526-78.95658511728990Clb=5.2m/s t=-52.1C h=-1.0% p=-1.0hPa 404.010 MHz Type=DFM17 ser=22037119 Radiosonde
W4DEX-14D220371192022-12-06 13:16:5637.0526-78.95618810928990Clb=5.2m/s Type=DFM17 ser=[BC]22037119 Details on http://radiosondy.info
W4DEX-14D220371192022-12-06 13:16:3737.0522-78.96128211328903Clb=5.8m/s Type=DFM17 ser=[BC]22037119 Details on http://radiosondy.info
W4KZK-14D220371192022-12-06 13:16:2637.0517-78.96477612428851Clb=4.3m/s t=-53.2C h=-1.0% p=-1.0hPa 404.010 MHz Type=DFM17 ser=22037119 Radiosonde
W4DEX-14D220371192022-12-06 13:16:1937.0514-78.96647810628814Clb=6.5m/s Type=DFM17 ser=[BC]22037119 Details on http://radiosondy.info
W4DEX-14D220371192022-12-06 13:16:0137.0507-78.97117710028723Clb=7.0m/s Type=DFM17 ser=[BC]22037119 Details on http://radiosondy.info
W4KZK-14D220371192022-12-06 13:15:4637.0501-78.97518710428651Clb=6.7m/s t=-53.5C h=-1.0% p=-1.0hPa 404.010 MHz Type=DFM17 ser=22037119 Radiosonde
W4DEX-14D220371192022-12-06 13:15:4137.0501-78.9757929128632Clb=6.9m/s Type=DFM17 ser=[BC]22037119 Details on http://radiosondy.info
KG4IFE-1D220371192022-12-06 13:15:4037.0501-78.9762769128624Clb=8.0m/s t=-53.6C h=-1.0% p=-1.0hPa 404.010 MHz Type=DFM17 ser=22037119 Radiosonde
W4DEX-14D220371192022-12-06 13:15:1837.0497-78.9799848928533Clb=7.0m/s Type=DFM17 ser=[BC]22037119 Details on http://radiosondy.info
W4KZK-14D220371192022-12-06 13:14:5837.0492-78.9842887228434Clb=6.0m/s t=-54.5C h=-1.0% p=-1.0hPa 404.010 MHz Type=DFM17 ser=22037119 Radiosonde
W4DEX-14D220371192022-12-06 13:14:5737.0492-78.9839928028434Clb=6.0m/s Type=DFM17 ser=[BC]22037119 Details on http://radiosondy.info
KG4IFE-1D220371192022-12-06 13:14:5437.0492-78.9846748328419Clb=7.2m/s t=-54.6C h=-1.0% p=-1.0hPa 404.010 MHz Type=DFM17 ser=22037119 Radiosonde
W4DEX-14D220371192022-12-06 13:14:3837.0485-78.9875858028334Clb=6.2m/s Type=DFM17 ser=[BC]22037119 Details on http://radiosondy.info
W4DEX-14D220371192022-12-06 13:14:1837.0482-78.9912907628231Clb=6.6m/s Type=DFM17 ser=[BC]22037119 Details on http://radiosondy.info
W4KZK-14D220371192022-12-06 13:14:1537.0482-78.992818128211Clb=8.0m/s t=-54.4C h=-1.0% p=-1.0hPa 404.010 MHz Type=DFM17 ser=22037119 Radiosonde
W4DEX-14D220371192022-12-06 13:13:5937.0482-78.9947877828128Clb=7.1m/s Type=DFM17 ser=[BC]22037119 Details on http://radiosondy.info
W4DEX-14D220371192022-12-06 13:13:3837.0486-78.99831038128023Clb=7.2m/s Type=DFM17 ser=[BC]22037119 Details on http://radiosondy.info
KG4IFE-1D220371192022-12-06 13:13:3237.0487-78.9994918527996Clb=8.2m/s t=-53.1C h=-1.0% p=-1.0hPa 404.010 MHz Type=DFM17 ser=22037119 Radiosonde
W4KZK-14D220371192022-12-06 13:13:3037.0488-79929327982Clb=5.6m/s t=-53.0C h=-1.0% p=-1.0hPa 404.010 MHz Type=DFM17 ser=22037119 Radiosonde
W4DEX-14D220371192022-12-06 13:13:1637.0491-79.0021008727921Clb=8.1m/s Type=DFM17 ser=[BC]22037119 Details on http://radiosondy.info
W4DEX-14D220371192022-12-06 13:12:5337.0495-79.006879127823Clb=7.6m/s Type=DFM17 ser=[BC]22037119 Details on http://radiosondy.info
KG4IFE-1D220371192022-12-06 13:12:4537.0497-79.007410811127790Clb=7.8m/s t=-53.2C h=-1.0% p=-1.0hPa 404.010 MHz Type=DFM17 ser=22037119 Radiosonde
W4KZK-14D220371192022-12-06 13:12:4037.0499-79.0088909327765Clb=7.7m/s t=-53.1C h=-1.0% p=-1.0hPa 404.010 MHz Type=DFM17 ser=22037119 Radiosonde
W4DEX-14D220371192022-12-06 13:12:3137.0499-79.0101948927722Clb=8.0m/s Type=DFM17 ser=[BC]22037119 Details on http://radiosondy.info
W4DEX-14D220371192022-12-06 13:12:1137.0499-79.0143869427629Clb=5.2m/s Type=DFM17 ser=[BC]22037119 Details on http://radiosondy.info
KG4IFE-1D220371192022-12-06 13:12:0437.0496-79.0162867627592Clb=6.6m/s t=-53.2C h=-1.0% p=-1.0hPa 404.010 MHz Type=DFM17 ser=22037119 Radiosonde
W4KZK-14D220371192022-12-06 13:12:0137.0492-79.0179568927555Clb=5.3m/s t=-53.9C h=-1.0% p=-1.0hPa 404.010 MHz Type=DFM17 ser=22037119 Radiosonde
W4DEX-14D220371192022-12-06 13:11:5937.048-79.0222668027448Clb=4.8m/s Type=DFM17 ser=[BC]22037119 Details on http://radiosondy.info
KG4IFE-1D220371192022-12-06 13:11:5737.0473-79.0244647227402Clb=6.0m/s t=-54.8C h=-1.0% p=-1.0hPa 404.010 MHz Type=DFM17 ser=22037119 Radiosonde
W4DEX-14D220371192022-12-06 13:11:5537.0471-79.0257627827360Clb=5.0m/s Type=DFM17 ser=[BC]22037119 Details on http://radiosondy.info
W4DEX-14D220371192022-12-06 13:11:5237.0465-79.0293778727275Clb=3.2m/s Type=DFM17 ser=[BC]22037119 Details on http://radiosondy.info
KG4IFE-1D220371192022-12-06 13:11:5037.0465-79.0314767827229Clb=4.3m/s t=-55.6C h=-1.0% p=-1.0hPa 404.010 MHz Type=DFM17 ser=22037119 Radiosonde
W4DEX-14D220371192022-12-06 13:11:4937.0464-79.0333848727188Clb=6.0m/s Type=DFM17 ser=[BC]22037119 Details on http://radiosondy.info
W4KZK-14D220371192022-12-06 13:11:4837.0464-79.0342967427170Clb=3.4m/s t=-55.5C h=-1.0% p=-1.0hPa 404.010 MHz Type=DFM17 ser=22037119 Radiosonde
W4DEX-14D220371192022-12-06 13:11:4537.0463-79.0371668927105Clb=4.4m/s Type=DFM17 ser=[BC]22037119 Details on http://radiosondy.info
KG4IFE-1D220371192022-12-06 13:11:4337.0461-79.0401708727050Clb=6.3m/s t=-54.7C h=-1.0% p=-1.0hPa 404.010 MHz Type=DFM17 ser=22037119 Radiosonde
W4DEX-14D220371192022-12-06 13:11:4037.0459-79.0412898027020Clb=6.2m/s Type=DFM17 ser=[BC]22037119 Details on http://radiosondy.info
W4KZK-14D220371192022-12-06 13:11:3937.0459-79.043868526986Clb=5.0m/s t=-54.3C h=-1.0% p=-1.0hPa 404.010 MHz Type=DFM17 ser=22037119 Radiosonde
KG4IFE-1D220371192022-12-06 13:11:3837.0453-79.0477788126862Clb=5.2m/s t=-54.0C h=-1.0% p=-1.0hPa 404.010 MHz Type=DFM17 ser=22037119 Radiosonde
W4KZK-14D220371192022-12-06 13:11:3737.0448-79.0507848726779Clb=4.3m/s t=-54.0C h=-1.0% p=-1.0hPa 404.010 MHz Type=DFM17 ser=22037119 Radiosonde
KG4IFE-1D220371192022-12-06 13:11:3637.0441-79.055847626664Clb=5.4m/s t=-54.3C h=-1.0% p=-1.0hPa 404.010 MHz Type=DFM17 ser=22037119 Radiosonde
W4DEX-14D220371192022-12-06 13:11:3537.0441-79.0555788526644Clb=7.5m/s Type=DFM17 ser=[BC]22037119 Details on http://radiosondy.info
W4KZK-14D220371192022-12-06 13:11:2937.0434-79.0591938026561Clb=7.5m/s t=-54.1C h=-1.0% p=-1.0hPa 404.010 MHz Type=DFM17 ser=22037119 Radiosonde
W4DEX-14D220371192022-12-06 13:11:2737.0434-79.0593968926548Clb=6.1m/s Type=DFM17 ser=[BC]22037119 Details on http://radiosondy.info
KG4IFE-1D220371192022-12-06 13:11:1737.0432-79.0632966926460Clb=4.9m/s t=-54.4C h=-1.0% p=-1.0hPa 404.010 MHz Type=DFM17 ser=22037119 Radiosonde
W4DEX-14D220371192022-12-06 13:11:1537.0432-79.0634888526447Clb=8.2m/s Type=DFM17 ser=[BC]22037119 Details on http://radiosondy.info
W4KZK-14D220371192022-12-06 13:10:5637.0429-79.0676868326345Clb=8.0m/s t=-54.3C h=-1.0% p=-1.0hPa 404.010 MHz Type=DFM17 ser=22037119 Radiosonde
KG4IFE-1D220371192022-12-06 13:10:3637.0431-79.07111106326255Clb=5.5m/s t=-54.5C h=-1.0% p=-1.0hPa 404.010 MHz Type=DFM17 ser=22037119 Radiosonde
W4DEX-14D220371192022-12-06 13:10:3437.0431-79.07111116726248Clb=6.9m/s Type=DFM17 ser=[BC]22037119 Details on http://radiosondy.info
W4DEX-14D220371192022-12-06 13:10:0937.0435-79.07421076326155Clb=5.8m/s Type=DFM17 ser=[BC]22037119 Details on http://radiosondy.info
W4KZK-14D220371192022-12-06 13:10:0537.0434-79.075866126137Clb=4.9m/s t=-54.6C h=-1.0% p=-1.0hPa 404.010 MHz Type=DFM17 ser=22037119 Radiosonde
KG4IFE-1D220371192022-12-06 13:09:4337.0437-79.0772806126060Clb=7.2m/s t=-54.9C h=-1.0% p=-1.0hPa 404.010 MHz Type=DFM17 ser=22037119 Radiosonde
W4DEX-14D220371192022-12-06 13:09:1637.044-79.08936925970Clb=4.8m/s Type=DFM17 ser=[BC]22037119 Details on http://radiosondy.info
W4KZK-14D220371192022-12-06 13:09:0637.0442-79.0816937225928Clb=4.5m/s t=-54.8C h=-1.0% p=-1.0hPa 404.010 MHz Type=DFM17 ser=22037119 Radiosonde
W4DEX-14D220371192022-12-06 13:08:5037.0444-79.0831876925881Clb=6.9m/s Type=DFM17 ser=[BC]22037119 Details on http://radiosondy.info
KG4IFE-1D220371192022-12-06 13:08:4837.0444-79.08351036725874Clb=6.6m/s t=-54.8C h=-1.0% p=-1.0hPa 404.010 MHz Type=DFM17 ser=22037119 Radiosonde
W4DEX-14D220371192022-12-06 13:08:2537.0446-79.08621017625795Clb=5.0m/s Type=DFM17 ser=[BC]22037119 Details on http://radiosondy.info
W4KZK-14D220371192022-12-06 13:08:0937.0449-79.08851067025746Clb=4.1m/s t=-54.8C h=-1.0% p=-1.0hPa 404.010 MHz Type=DFM17 ser=22037119 Radiosonde
W4DEX-14D220371192022-12-06 13:07:5537.0449-79.0897938125714Clb=5.6m/s Type=DFM17 ser=[BC]22037119 Details on http://radiosondy.info
KG4IFE-1D220371192022-12-06 13:07:5137.045-79.0906887025698Clb=7.4m/s t=-55.0C h=-1.0% p=-1.0hPa 404.010 MHz Type=DFM17 ser=22037119 Radiosonde
W4DEX-14D220371192022-12-06 13:07:2637.0449-79.0935927825631Clb=3.9m/s Type=DFM17 ser=[BC]22037119 Details on http://radiosondy.info
W4KZK-14D220371192022-12-06 13:07:0537.0446-79.0969906125558Clb=3.0m/s t=-55.5C h=-1.0% p=-1.0hPa 404.010 MHz Type=DFM17 ser=22037119 Radiosonde
W4DEX-14D220371192022-12-06 13:07:0137.0446-79.0971877825550Clb=6.4m/s Type=DFM17 ser=[BC]22037119 Details on http://radiosondy.info
KG4IFE-1D220371192022-12-06 13:06:5637.0444-79.0982749825532Clb=3.5m/s t=-55.7C h=-1.0% p=-1.0hPa 404.010 MHz Type=DFM17 ser=22037119 Radiosonde
W4DEX-14D220371192022-12-06 13:06:3737.044-79.1006857825467Clb=6.2m/s Type=DFM17 ser=[BC]22037119 Details on http://radiosondy.info
W4DEX-14D220371192022-12-06 13:06:1737.0435-79.1042807425381Clb=5.3m/s Type=DFM17 ser=[BC]22037119 Details on http://radiosondy.info
W4KZK-14D220371192022-12-06 13:06:1637.0434-79.1047718025376Clb=4.4m/s t=-57.0C h=-1.0% p=-1.0hPa 404.010 MHz Type=DFM17 ser=22037119 Radiosonde
KG4IFE-1D220371192022-12-06 13:06:1037.0433-79.1053966925359Clb=7.2m/s t=-56.9C h=-1.0% p=-1.0hPa 404.010 MHz Type=DFM17 ser=22037119 Radiosonde
W4DEX-14D220371192022-12-06 13:05:5337.0433-79.1075917025294Clb=5.4m/s Type=DFM17 ser=[BC]22037119 Details on http://radiosondy.info
W4DEX-14D220371192022-12-06 13:05:3137.0434-79.1108896725208Clb=6.5m/s Type=DFM17 ser=[BC]22037119 Details on http://radiosondy.info
W4KZK-14D220371192022-12-06 13:05:2637.0435-79.1118855925184Clb=7.2m/s t=-57.8C h=-1.0% p=-1.0hPa 404.010 MHz Type=DFM17 ser=22037119 Radiosonde
KG4IFE-1D220371192022-12-06 13:05:2337.0435-79.112845925178Clb=4.6m/s t=-57.8C h=-1.0% p=-1.0hPa 404.010 MHz Type=DFM17 ser=22037119 Radiosonde
W4DEX-14D220371192022-12-06 13:05:1037.0436-79.11391056325118Clb=4.8m/s Type=DFM17 ser=[BC]22037119 Details on http://radiosondy.info
W4DEX-14D220371192022-12-06 13:04:4537.0438-79.11671046125029Clb=4.9m/s Type=DFM17 ser=[BC]22037119 Details on http://radiosondy.info
KG4IFE-1D220371192022-12-06 13:04:3237.0438-79.118976924994Clb=5.3m/s t=-57.9C h=-1.0% p=-1.0hPa 404.010 MHz Type=DFM17 ser=22037119 Radiosonde
W4DEX-14D220371192022-12-06 13:04:1737.0439-79.1195936524941Clb=6.5m/s Type=DFM17 ser=[BC]22037119 Details on http://radiosondy.info
W4DEX-14D220371192022-12-06 13:03:4837.0441-79.1225796124853Clb=5.4m/s Type=DFM17 ser=[BC]22037119 Details on http://radiosondy.info
KG4IFE-1D220371192022-12-06 13:03:3537.044-79.1242906524810Clb=4.3m/s t=-57.9C h=-1.0% p=-1.0hPa 404.010 MHz Type=DFM17 ser=22037119 Radiosonde
W4KZK-14D220371192022-12-06 13:03:3137.0441-79.12471045924792Clb=3.9m/s t=-57.8C h=-1.0% p=-1.0hPa 404.010 MHz Type=DFM17 ser=22037119 Radiosonde
W4DEX-14D220371192022-12-06 13:03:2137.0441-79.1253746524771Clb=3.4m/s Type=DFM17 ser=[BC]22037119 Details on http://radiosondy.info
W4DEX-14D220371192022-12-06 13:03:0237.0441-79.1283686324690Clb=7.0m/s Type=DFM17 ser=[BC]22037119 Details on http://radiosondy.info
KG4IFE-1D220371192022-12-06 13:02:5037.044-79.1302716324642Clb=4.8m/s t=-56.9C h=-1.0% p=-1.0hPa 404.010 MHz Type=DFM17 ser=22037119 Radiosonde
W4KZK-14D220371192022-12-06 13:02:4437.0439-79.131916524621Clb=3.3m/s t=-56.9C h=-1.0% p=-1.0hPa 404.010 MHz Type=DFM17 ser=22037119 Radiosonde
W4DEX-14D220371192022-12-06 13:02:4037.0439-79.1312776924610Clb=6.9m/s Type=DFM17 ser=[BC]22037119 Details on http://radiosondy.info
W4DEX-14D220371192022-12-06 13:02:1537.0434-79.1343656924527Clb=4.8m/s Type=DFM17 ser=[BC]22037119 Details on http://radiosondy.info
KG4IFE-1D220371192022-12-06 13:01:5937.0428-79.1367676324466Clb=6.1m/s t=-56.5C h=-1.0% p=-1.0hPa 404.010 MHz Type=DFM17 ser=22037119 Radiosonde
W4DEX-14D220371192022-12-06 13:01:5337.0424-79.1372667024443Clb=7.0m/s Type=DFM17 ser=[BC]22037119 Details on http://radiosondy.info
W4KZK-14D220371192022-12-06 13:01:5137.0422-79.1379757624431Clb=5.1m/s t=-56.6C h=-1.0% p=-1.0hPa 404.010 MHz Type=DFM17 ser=22037119 Radiosonde
W4DEX-14D220371192022-12-06 13:01:3237.0415-79.1403836724355Clb=6.5m/s Type=DFM17 ser=[BC]22037119 Details on http://radiosondy.info
KG4IFE-1D220371192022-12-06 13:01:1137.0407-79.1425616924294Clb=3.2m/s t=-56.0C h=-1.0% p=-1.0hPa 404.010 MHz Type=DFM17 ser=22037119 Radiosonde
W4DEX-14D220371192022-12-06 13:01:0337.0406-79.1431777024271Clb=5.9m/s Type=DFM17 ser=[BC]22037119 Details on http://radiosondy.info
W4KZK-14D220371192022-12-06 13:00:5537.0401-79.144637824247Clb=6.4m/s t=-56.9C h=-1.0% p=-1.0hPa 404.010 MHz Type=DFM17 ser=22037119 Radiosonde
W4DEX-14D220371192022-12-06 13:00:3637.0393-79.146706524182Clb=6.8m/s Type=DFM17 ser=[BC]22037119 Details on http://radiosondy.info
KG4IFE-1D220371192022-12-06 13:00:1437.0383-79.1485617624101Clb=5.9m/s t=-57.8C h=-1.0% p=-1.0hPa 404.010 MHz Type=DFM17 ser=22037119 Radiosonde
W4DEX-14D220371192022-12-06 13:00:0337.0382-79.1487636124090Clb=7.2m/s Type=DFM17 ser=[BC]22037119 Details on http://radiosondy.info
W4KZK-14D220371192022-12-06 12:59:5037.0378-79.1501697024051Clb=4.9m/s t=-58.5C h=-1.0% p=-1.0hPa 404.010 MHz Type=DFM17 ser=22037119 Radiosonde
W4DEX-14D220371192022-12-06 12:59:3537.0376-79.1514696724000Clb=6.4m/s Type=DFM17 ser=[BC]22037119 Details on http://radiosondy.info
KG4IFE-1D220371192022-12-06 12:59:0437.037-79.1542656323920Clb=4.8m/s t=-59.5C h=-1.0% p=-1.0hPa 404.010 MHz Type=DFM17 ser=22037119 Radiosonde
W4DEX-14D220371192022-12-06 12:59:0037.037-79.1544735923907Clb=7.5m/s Type=DFM17 ser=[BC]22037119 Details on http://radiosondy.info
W4KZK-14D220371192022-12-06 12:58:4237.0365-79.1566725723838Clb=4.5m/s t=-59.8C h=-1.0% p=-1.0hPa 404.010 MHz Type=DFM17 ser=22037119 Radiosonde
W4DEX-14D220371192022-12-06 12:58:3237.0365-79.1571916123811Clb=7.5m/s Type=DFM17 ser=[BC]22037119 Details on http://radiosondy.info
KG4IFE-1D220371192022-12-06 12:58:0037.0362-79.1599826523722Clb=7.4m/s t=-60.1C h=-1.0% p=-1.0hPa 404.010 MHz Type=DFM17 ser=22037119 Radiosonde
W4DEX-14D220371192022-12-06 12:57:5837.0362-79.1599835723716Clb=6.4m/s Type=DFM17 ser=[BC]22037119 Details on http://radiosondy.info
W4KZK-14D220371192022-12-06 12:57:3337.036-79.1623947023632Clb=5.0m/s t=-60.7C h=-1.0% p=-1.0hPa 404.010 MHz Type=DFM17 ser=22037119 Radiosonde
W4DEX-14D220371192022-12-06 12:57:2737.036-79.1625945023620Clb=6.9m/s Type=DFM17 ser=[BC]22037119 Details on http://radiosondy.info
KG4IFE-1D220371192022-12-06 12:57:0037.0359-79.1649944623528Clb=7.0m/s t=-60.8C h=-1.0% p=-1.0hPa 404.010 MHz Type=DFM17 ser=22037119 Radiosonde
W4DEX-14D220371192022-12-06 12:56:5937.0359-79.1648924823528Clb=7.0m/s Type=DFM17 ser=[BC]22037119 Details on http://radiosondy.info
W4DEX-14D220371192022-12-06 12:56:3537.036-79.1671095723438Clb=4.8m/s Type=DFM17 ser=[BC]22037119 Details on http://radiosondy.info
W4KZK-14D220371192022-12-06 12:56:3437.0361-79.1673944823432Clb=6.5m/s t=-61.2C h=-1.0% p=-1.0hPa 404.010 MHz Type=DFM17 ser=22037119 Radiosonde
W4DEX-14D220371192022-12-06 12:56:0837.0365-79.16971105923350Clb=6.2m/s Type=DFM17 ser=[BC]22037119 Details on http://radiosondy.info
KG4IFE-1D220371192022-12-06 12:56:0737.0366-79.17916523344Clb=6.2m/s t=-61.1C h=-1.0% p=-1.0hPa 404.010 MHz Type=DFM17 ser=22037119 Radiosonde
W4DEX-14D220371192022-12-06 12:55:4337.0367-79.1724876723264Clb=5.4m/s Type=DFM17 ser=[BC]22037119 Details on http://radiosondy.info
W4KZK-14D220371192022-12-06 12:55:3537.0367-79.1736956323238Clb=6.6m/s t=-61.5C h=-1.0% p=-1.0hPa 404.010 MHz Type=DFM17 ser=22037119 Radiosonde
W4DEX-14D220371192022-12-06 12:55:1437.0367-79.1755886523183Clb=7.4m/s Type=DFM17 ser=[BC]22037119 Details on http://radiosondy.info
KG4IFE-1D220371192022-12-06 12:55:0737.0368-79.1763875423167Clb=6.2m/s t=-61.8C h=-1.0% p=-1.0hPa 404.010 MHz Type=DFM17 ser=22037119 Radiosonde
W4DEX-14D220371192022-12-06 12:54:4537.0366-79.1785936923104Clb=5.1m/s Type=DFM17 ser=[BC]22037119 Details on http://radiosondy.info
W4KZK-14D220371192022-12-06 12:54:3237.0365-79.1802846123066Clb=5.1m/s t=-62.2C h=-1.0% p=-1.0hPa 404.010 MHz Type=DFM17 ser=22037119 Radiosonde
W4DEX-14D220371192022-12-06 12:54:2037.0364-79.1816946123025Clb=5.8m/s Type=DFM17 ser=[BC]22037119 Details on http://radiosondy.info
KG4IFE-1D220371192022-12-06 12:54:1637.0363-79.1824725623008Clb=6.4m/s t=-62.6C h=-1.0% p=-1.0hPa 404.010 MHz Type=DFM17 ser=22037119 Radiosonde
W4DEX-14D220371192022-12-06 12:53:5437.0361-79.1844765722944Clb=3.2m/s Type=DFM17 ser=[BC]22037119 Details on http://radiosondy.info
W4KZK-14D220371192022-12-06 12:53:3637.0355-79.1862664422885Clb=4.9m/s t=-62.7C h=-1.0% p=-1.0hPa 404.010 MHz Type=DFM17 ser=22037119 Radiosonde
W4DEX-14D220371192022-12-06 12:53:2637.0352-79.1868555022857Clb=8.0m/s Type=DFM17 ser=[BC]22037119 Details on http://radiosondy.info
KG4IFE-1D220371192022-12-06 12:53:2137.035-79.1874755422834Clb=5.1m/s t=-62.6C h=-1.0% p=-1.0hPa 404.010 MHz Type=DFM17 ser=22037119 Radiosonde
W4DEX-14D220371192022-12-06 12:53:0037.0343-79.1888514622770Clb=5.0m/s Type=DFM17 ser=[BC]22037119 Details on http://radiosondy.info
W4KZK-14D220371192022-12-06 12:52:3837.0332-79.1903404122687Clb=6.2m/s t=-63.1C h=-1.0% p=-1.0hPa 404.010 MHz Type=DFM17 ser=22037119 Radiosonde
W4DEX-14D220371192022-12-06 12:52:3437.0332-79.1903493322681Clb=6.3m/s Type=DFM17 ser=[BC]22037119 Details on http://radiosondy.info
KG4IFE-1D220371192022-12-06 12:52:2037.0328-79.1908443122653Clb=4.9m/s t=-63.2C h=-1.0% p=-1.0hPa 404.010 MHz Type=DFM17 ser=22037119 Radiosonde
W4DEX-14D220371192022-12-06 12:51:5537.0324-79.1915582022591Clb=4.3m/s Type=DFM17 ser=[BC]22037119 Details on http://radiosondy.info
W4DEX-14D220371192022-12-06 12:51:2737.032-79.1922381722503Clb=5.5m/s Type=DFM17 ser=[BC]22037119 Details on http://radiosondy.info
W4KZK-14D220371192022-12-06 12:51:2537.0319-79.1922591122499Clb=3.8m/s t=-62.7C h=-1.0% p=-1.0hPa 404.010 MHz Type=DFM17 ser=22037119 Radiosonde
KG4IFE-1D220371192022-12-06 12:51:1537.0318-79.192550622466Clb=8.2m/s t=-62.7C h=-1.0% p=-1.0hPa 404.010 MHz Type=DFM17 ser=22037119 Radiosonde
W4DEX-14D220371192022-12-06 12:51:0037.0318-79.19291011722414Clb=5.4m/s Type=DFM17 ser=[BC]22037119 Details on http://radiosondy.info
W4DEX-14D220371192022-12-06 12:50:3237.032-79.19361352622323Clb=5.2m/s Type=DFM17 ser=[BC]22037119 Details on http://radiosondy.info
W4KZK-14D220371192022-12-06 12:50:2237.0323-79.1941203922286Clb=5.7m/s t=-63.5C h=-1.0% p=-1.0hPa 404.010 MHz Type=DFM17 ser=22037119 Radiosonde
KG4IFE-1D220371192022-12-06 12:50:1537.0324-79.19421271922273Clb=7.7m/s t=-63.4C h=-1.0% p=-1.0hPa 404.010 MHz Type=DFM17 ser=22037119 Radiosonde
W4DEX-14D220371192022-12-06 12:49:5937.0326-79.19451032022229Clb=5.5m/s Type=DFM17 ser=[BC]22037119 Details on http://radiosondy.info
W4DEX-14D220371192022-12-06 12:49:2937.0326-79.1954862222139Clb=4.5m/s Type=DFM17 ser=[BC]22037119 Details on http://radiosondy.info
W4KZK-14D220371192022-12-06 12:49:1437.0325-79.196733322090Clb=8.0m/s t=-62.2C h=-1.0% p=-1.0hPa 404.010 MHz Type=DFM17 ser=22037119 Radiosonde
KG4IFE-1D220371192022-12-06 12:49:1137.0325-79.1961783522083Clb=5.5m/s t=-62.3C h=-1.0% p=-1.0hPa 404.010 MHz Type=DFM17 ser=22037119 Radiosonde
W4DEX-14D220371192022-12-06 12:48:5637.0325-79.1965813122047Clb=5.9m/s Type=DFM17 ser=[BC]22037119 Details on http://radiosondy.info
W4DEX-14D220371192022-12-06 12:48:2637.0323-79.1979913521960Clb=6.3m/s Type=DFM17 ser=[BC]22037119 Details on http://radiosondy.info
KG4IFE-1D220371192022-12-06 12:48:0637.0321-79.199764321904Clb=4.9m/s t=-62.4C h=-1.0% p=-1.0hPa 404.010 MHz Type=DFM17 ser=22037119 Radiosonde
W4KZK-14D220371192022-12-06 12:48:0537.0321-79.1991853121897Clb=7.8m/s t=-62.4C h=-1.0% p=-1.0hPa 404.010 MHz Type=DFM17 ser=22037119 Radiosonde
W4DEX-14D220371192022-12-06 12:47:5337.0321-79.1995814121872Clb=4.1m/s Type=DFM17 ser=[BC]22037119 Details on http://radiosondy.info
W4DEX-14D220371192022-12-06 12:47:2337.0319-79.2013743521787Clb=6.0m/s Type=DFM17 ser=[BC]22037119 Details on http://radiosondy.info
KG4IFE-1D220371192022-12-06 12:47:0237.0318-79.2026804121727Clb=5.6m/s t=-61.9C h=-1.0% p=-1.0hPa 404.010 MHz Type=DFM17 ser=22037119 Radiosonde
W4KZK-14D220371192022-12-06 12:46:5737.0318-79.2031182421706Clb=4.0m/s t=-62.0C h=-1.0% p=-1.0hPa 404.010 MHz Type=DFM17 ser=22037119 Radiosonde
W4DEX-14D220371192022-12-06 12:46:5437.0318-79.20291083321706Clb=3.9m/s Type=DFM17 ser=[BC]22037119 Details on http://radiosondy.info
W4DEX-14D220371192022-12-06 12:46:2937.0316-79.2044694121627Clb=5.2m/s Type=DFM17 ser=[BC]22037119 Details on http://radiosondy.info
KG4IFE-1D220371192022-12-06 12:46:0637.0314-79.2062874121561Clb=4.0m/s t=-62.1C h=-1.0% p=-1.0hPa 404.010 MHz Type=DFM17 ser=22037119 Radiosonde
W4DEX-14D220371192022-12-06 12:45:5937.0314-79.2063833721551Clb=4.3m/s Type=DFM17 ser=[BC]22037119 Details on http://radiosondy.info
W4KZK-14D220371192022-12-06 12:45:5537.0314-79.2067923921543Clb=6.0m/s t=-62.0C h=-1.0% p=-1.0hPa 404.010 MHz Type=DFM17 ser=22037119 Radiosonde
W4DEX-14D220371192022-12-06 12:45:3137.0312-79.208822621475Clb=7.1m/s Type=DFM17 ser=[BC]22037119 Details on http://radiosondy.info
KG4IFE-1D220371192022-12-06 12:45:0037.031-79.2091741121407Clb=5.6m/s t=-61.8C h=-1.0% p=-1.0hPa 404.010 MHz Type=DFM17 ser=22037119 Radiosonde
W4DEX-14D220371192022-12-06 12:44:5537.031-79.2091702221396Clb=6.5m/s Type=DFM17 ser=[BC]22037119 Details on http://radiosondy.info
W4KZK-14D220371192022-12-06 12:44:4737.0309-79.209573921370Clb=5.0m/s t=-62.1C h=-1.0% p=-1.0hPa 404.010 MHz Type=DFM17 ser=22037119 Radiosonde
W4DEX-14D220371192022-12-06 12:44:2737.0306-79.2099631521318Clb=5.5m/s Type=DFM17 ser=[BC]22037119 Details on http://radiosondy.info
KG4IFE-1D220371192022-12-06 12:44:0037.0304-79.210556221238Clb=3.3m/s t=-61.6C h=-1.0% p=-1.0hPa 404.010 MHz Type=DFM17 ser=22037119 Radiosonde
W4KZK-14D220371192022-12-06 12:43:5937.0303-79.211792621186Clb=3.9m/s t=-61.1C h=-1.0% p=-1.0hPa 404.010 MHz Type=DFM17 ser=22037119 Radiosonde
W4DEX-14D220371192022-12-06 12:43:5837.0302-79.2113542221154Clb=3.6m/s Type=DFM17 ser=[BC]22037119 Details on http://radiosondy.info
KG4IFE-1D220371192022-12-06 12:43:5237.0302-79.21221251521076Clb=3.2m/s t=-60.4C h=-1.0% p=-1.0hPa 404.010 MHz Type=DFM17 ser=22037119 Radiosonde
W4DEX-14D220371192022-12-06 12:43:5137.0301-79.21221352221076Clb=3.2m/s Type=DFM17 ser=[BC]22037119 Details on http://radiosondy.info
W4KZK-14D220371192022-12-06 12:43:5037.0301-79.213822621019Clb=4.0m/s t=-60.1C h=-1.0% p=-1.0hPa 404.010 MHz Type=DFM17 ser=22037119 Radiosonde
W4DEX-14D220371192022-12-06 12:43:4937.0302-79.2143923520921Clb=4.1m/s Type=DFM17 ser=[BC]22037119 Details on http://radiosondy.info
W4KZK-14D220371192022-12-06 12:43:4837.0303-79.2159943720849Clb=5.9m/s t=-61.1C h=-1.0% p=-1.0hPa 404.010 MHz Type=DFM17 ser=22037119 Radiosonde
W4DEX-14D220371192022-12-06 12:43:4337.0306-79.21711173120765Clb=5.6m/s Type=DFM17 ser=[BC]22037119 Details on http://radiosondy.info
KG4IFE-1D220371192022-12-06 12:43:4237.0308-79.21761133520749Clb=5.6m/s t=-61.7C h=-1.0% p=-1.0hPa 404.010 MHz Type=DFM17 ser=22037119 Radiosonde
W4DEX-14D220371192022-12-06 12:43:3437.031-79.2185833720690Clb=5.1m/s Type=DFM17 ser=[BC]22037119 Details on http://radiosondy.info
W4DEX-14D220371192022-12-06 12:43:2837.0313-79.22021224320617Clb=4.1m/s Type=DFM17 ser=[BC]22037119 Details on http://radiosondy.info
KG4IFE-1D220371192022-12-06 12:43:2737.0315-79.22071034620602Clb=3.6m/s t=-62.6C h=-1.0% p=-1.0hPa 404.010 MHz Type=DFM17 ser=22037119 Radiosonde
W4DEX-14D220371192022-12-06 12:43:2037.0319-79.222984420542Clb=4.9m/s Type=DFM17 ser=[BC]22037119 Details on http://radiosondy.info
W4KZK-14D220371192022-12-06 12:43:1537.0322-79.22271064820517Clb=4.5m/s t=-63.2C h=-1.0% p=-1.0hPa 404.010 MHz Type=DFM17 ser=22037119 Radiosonde
W4DEX-14D220371192022-12-06 12:43:0437.0325-79.2241195920469Clb=5.4m/s Type=DFM17 ser=[BC]22037119 Details on http://radiosondy.info
KG4IFE-1D220371192022-12-06 12:43:0137.0328-79.22481006720450Clb=4.8m/s t=-63.9C h=-1.0% p=-1.0hPa 404.010 MHz Type=DFM17 ser=22037119 Radiosonde
W4DEX-14D220371192022-12-06 12:42:4337.0332-79.22661025720397Clb=4.4m/s Type=DFM17 ser=[BC]22037119 Details on http://radiosondy.info
W4KZK-14D220371192022-12-06 12:42:3237.0335-79.22821085620359Clb=5.9m/s t=-63.6C h=-1.0% p=-1.0hPa 404.010 MHz Type=DFM17 ser=22037119 Radiosonde
W4DEX-14D220371192022-12-06 12:42:1737.0336-79.22921125020328Clb=2.9m/s Type=DFM17 ser=[BC]22037119 Details on http://radiosondy.info
KG4IFE-1D220371192022-12-06 12:42:0737.0337-79.2302985220305Clb=6.0m/s t=-63.4C h=-1.0% p=-1.0hPa 404.010 MHz Type=DFM17 ser=22037119 Radiosonde
W4DEX-14D220371192022-12-06 12:42:0037.034-79.2315954620258Clb=4.9m/s Type=DFM17 ser=[BC]22037119 Details on http://radiosondy.info
W4KZK-14D220371192022-12-06 12:41:5937.0342-79.23311114320208Clb=4.3m/s t=-63.9C h=-1.0% p=-1.0hPa 404.010 MHz Type=DFM17 ser=22037119 Radiosonde
KG4IFE-1D220371192022-12-06 12:41:5737.0346-79.23451193520150Clb=5.2m/s t=-63.9C h=-1.0% p=-1.0hPa 404.010 MHz Type=DFM17 ser=22037119 Radiosonde
W4DEX-14D220371192022-12-06 12:41:5637.0348-79.2351163120116Clb=5.1m/s Type=DFM17 ser=[BC]22037119 Details on http://radiosondy.info
W4KZK-14D220371192022-12-06 12:41:5437.0354-79.23631253720046Clb=5.6m/s t=-64.4C h=-1.0% p=-1.0hPa 404.010 MHz Type=DFM17 ser=22037119 Radiosonde
KG4IFE-1D220371192022-12-06 12:41:5337.0357-79.23721273520000Clb=6.5m/s t=-64.8C h=-1.0% p=-1.0hPa 404.010 MHz Type=DFM17 ser=22037119 Radiosonde
W4DEX-14D220371192022-12-06 12:41:5137.0363-79.2396813919889Clb=6.1m/s Type=DFM17 ser=[BC]22037119 Details on http://radiosondy.info
KG4IFE-1D220371192022-12-06 12:41:5037.0361-79.2411853519832Clb=4.9m/s t=-66.2C h=-1.0% p=-1.0hPa 404.010 MHz Type=DFM17 ser=22037119 Radiosonde
W4DEX-14D220371192022-12-06 12:41:4937.0359-79.2434973519730Clb=5.1m/s Type=DFM17 ser=[BC]22037119 Details on http://radiosondy.info
KG4IFE-1D220371192022-12-06 12:41:4837.0359-79.24451093719675Clb=4.4m/s t=-66.9C h=-1.0% p=-1.0hPa 404.010 MHz Type=DFM17 ser=22037119 Radiosonde
W4DEX-14D220371192022-12-06 12:41:4737.0357-79.2464863019563Clb=6.3m/s Type=DFM17 ser=[BC]22037119 Details on http://radiosondy.info
W4KZK-14D220371192022-12-06 12:41:4637.0356-79.2472773019521Clb=4.8m/s t=-66.2C h=-1.0% p=-1.0hPa 404.010 MHz Type=DFM17 ser=22037119 Radiosonde
W4DEX-14D220371192022-12-06 12:41:4237.0356-79.24921113319401Clb=4.7m/s Type=DFM17 ser=[BC]22037119 Details on http://radiosondy.info
KD4EG-15D220371192022-12-06 12:41:4037.0357-79.24971134119374Clb=5.0m/s t=-65.5C h=-1.0% p=-1.0hPa 404.010 MHz Type=DFM17 ser=22037119 Radiosonde
W4KZK-14D220371192022-12-06 12:41:3537.0358-79.25031053519343Clb=6.3m/s t=-65.4C h=-1.0% p=-1.0hPa 404.010 MHz Type=DFM17 ser=22037119 Radiosonde
KG4IFE-1D220371192022-12-06 12:41:3337.0358-79.25051074319332Clb=4.7m/s t=-65.3C h=-1.0% p=-1.0hPa 404.010 MHz Type=DFM17 ser=22037119 Radiosonde
W4DEX-14D220371192022-12-06 12:41:2937.0359-79.2507993519321Clb=4.1m/s Type=DFM17 ser=[BC]22037119 Details on http://radiosondy.info
W4DEX-14D220371192022-12-06 12:41:1237.0361-79.25231033519243Clb=5.9m/s Type=DFM17 ser=[BC]22037119 Details on http://radiosondy.info
KD4EG-15D220371192022-12-06 12:41:0837.0363-79.25291164419209Clb=3.9m/s t=-65.0C h=-1.0% p=-1.0hPa 404.010 MHz Type=DFM17 ser=22037119 Radiosonde
KG4IFE-1D220371192022-12-06 12:40:5737.0365-79.25371073119172Clb=6.2m/s t=-64.8C h=-1.0% p=-1.0hPa 404.010 MHz Type=DFM17 ser=22037119 Radiosonde
W4DEX-14D220371192022-12-06 12:40:5437.0365-79.25381093519162Clb=4.0m/s Type=DFM17 ser=[BC]22037119 Details on http://radiosondy.info
W4DEX-14D220371192022-12-06 12:40:2537.0372-79.25521124619085Clb=7.1m/s Type=DFM17 ser=[BC]22037119 Details on http://radiosondy.info
KD4EG-15D220371192022-12-06 12:40:1337.0376-79.25611285219045Clb=5.4m/s t=-65.2C h=-1.0% p=-1.0hPa 404.010 MHz Type=DFM17 ser=22037119 Radiosonde
KG4IFE-1D220371192022-12-06 12:39:5637.038-79.25711154419008Clb=4.6m/s t=-65.0C h=-1.0% p=-1.0hPa 404.010 MHz Type=DFM17 ser=22037119 Radiosonde
W4DEX-14D220371192022-12-06 12:39:5437.038-79.25711164819003Clb=6.8m/s Type=DFM17 ser=[BC]22037119 Details on http://radiosondy.info
W4KZK-14D220371192022-12-06 12:39:4937.0382-79.25761224618987Clb=6.2m/s t=-65.0C h=-1.0% p=-1.0hPa 404.010 MHz Type=DFM17 ser=22037119 Radiosonde
W4DEX-14D220371192022-12-06 12:39:2437.0389-79.25911145418924Clb=6.4m/s Type=DFM17 ser=[BC]22037119 Details on http://radiosondy.info
KD4EG-15D220371192022-12-06 12:39:0537.0395-79.26031335918883Clb=3.9m/s t=-65.6C h=-1.0% p=-1.0hPa 404.010 MHz Type=DFM17 ser=22037119 Radiosonde
KG4IFE-1D220371192022-12-06 12:38:4937.04-79.26141095718846Clb=6.2m/s t=-65.9C h=-1.0% p=-1.0hPa 404.010 MHz Type=DFM17 ser=22037119 Radiosonde
W4DEX-14D220371192022-12-06 12:38:4837.0399-79.26121165718846Clb=6.2m/s Type=DFM17 ser=[BC]22037119 Details on http://radiosondy.info
W4KZK-14D220371192022-12-06 12:38:3737.0403-79.26231154618814Clb=6.1m/s t=-66.1C h=-1.0% p=-1.0hPa 404.010 MHz Type=DFM17 ser=22037119 Radiosonde
W4DEX-14D220371192022-12-06 12:38:1637.0407-79.26371206718769Clb=6.0m/s Type=DFM17 ser=[BC]22037119 Details on http://radiosondy.info
KD4EG-15D220371192022-12-06 12:37:5637.0413-79.26551187018728Clb=5.0m/s t=-67.3C h=-1.0% p=-1.0hPa 404.010 MHz Type=DFM17 ser=22037119 Radiosonde
W4DEX-14D220371192022-12-06 12:37:4137.0416-79.26661157818701Clb=3.7m/s Type=DFM17 ser=[BC]22037119 Details on http://radiosondy.info
KG4IFE-1D220371192022-12-06 12:37:3737.0418-79.2671098118698Clb=3.4m/s t=-67.6C h=-1.0% p=-1.0hPa 404.010 MHz Type=DFM17 ser=22037119 Radiosonde
W4KZK-14D220371192022-12-06 12:37:2137.0421-79.26891087818660Clb=5.4m/s t=-67.5C h=-1.0% p=-1.0hPa 404.010 MHz Type=DFM17 ser=22037119 Radiosonde
W4DEX-14D220371192022-12-06 12:37:0637.0424-79.2701977218634Clb=4.4m/s Type=DFM17 ser=[BC]22037119 Details on http://radiosondy.info
KD4EG-15D220371192022-12-06 12:36:4337.0429-79.27251026518588Clb=4.2m/s t=-67.4C h=-1.0% p=-1.0hPa 404.010 MHz Type=DFM17 ser=22037119 Radiosonde
W4DEX-14D220371192022-12-06 12:36:3237.043-79.27341047618566Clb=5.7m/s Type=DFM17 ser=[BC]22037119 Details on http://radiosondy.info
KG4IFE-1D220371192022-12-06 12:36:2737.0432-79.2743988018552Clb=5.8m/s t=-67.3C h=-1.0% p=-1.0hPa 404.010 MHz Type=DFM17 ser=22037119 Radiosonde
W4KZK-14D220371192022-12-06 12:36:0737.0434-79.2764987618513Clb=3.8m/s t=-67.4C h=-1.0% p=-1.0hPa 404.010 MHz Type=DFM17 ser=22037119 Radiosonde
W4DEX-14D220371192022-12-06 12:35:5937.0435-79.2769977818501Clb=4.1m/s Type=DFM17 ser=[BC]22037119 Details on http://radiosondy.info
KD4EG-15D220371192022-12-06 12:35:3537.0436-79.28937418454Clb=4.4m/s t=-67.4C h=-1.0% p=-1.0hPa 404.010 MHz Type=DFM17 ser=22037119 Radiosonde
W4DEX-14D220371192022-12-06 12:35:2237.0437-79.2805937618441Clb=5.7m/s Type=DFM17 ser=[BC]22037119 Details on http://radiosondy.info
KG4IFE-1D220371192022-12-06 12:35:1537.0437-79.2817898318423Clb=4.3m/s t=-67.7C h=-1.0% p=-1.0hPa 404.010 MHz Type=DFM17 ser=22037119 Radiosonde
W4KZK-14D220371192022-12-06 12:34:4137.0437-79.2843907818374Clb=4.3m/s t=-67.8C h=-1.0% p=-1.0hPa 404.010 MHz Type=DFM17 ser=22037119 Radiosonde
W4DEX-14D220371192022-12-06 12:34:4037.0436-79.284916918374Clb=4.3m/s Type=DFM17 ser=[BC]22037119 Details on http://radiosondy.info
KD4EG-15D220371192022-12-06 12:34:0937.0435-79.2868847018321Clb=3.6m/s t=-67.7C h=-1.0% p=-1.0hPa 404.010 MHz Type=DFM17 ser=22037119 Radiosonde
W4DEX-14D220371192022-12-06 12:34:0037.0435-79.2871805718308Clb=3.2m/s Type=DFM17 ser=[BC]22037119 Details on http://radiosondy.info
KG4IFE-1D220371192022-12-06 12:33:5037.0434-79.2883855918287Clb=5.0m/s t=-67.6C h=-1.0% p=-1.0hPa 404.010 MHz Type=DFM17 ser=22037119 Radiosonde
W4DEX-14D220371192022-12-06 12:33:2437.0433-79.2898845418238Clb=4.3m/s Type=DFM17 ser=[BC]22037119 Details on http://radiosondy.info
W4KZK-14D220371192022-12-06 12:33:1937.0432-79.2904674418224Clb=4.0m/s t=-67.4C h=-1.0% p=-1.0hPa 404.010 MHz Type=DFM17 ser=22037119 Radiosonde
W4DEX-14D220371192022-12-06 12:32:1537.0699-79.470710810615135Clb=6.6m/s Type=DFM17 ser=[BC]22037119 Details on http://radiosondy.info
W4KZK-14D220371192022-12-06 12:32:1337.0701-79.471311110615129Clb=3.0m/s t=-65.5C h=-1.0% p=-1.0hPa 404.010 MHz Type=DFM17 ser=22037119 Radiosonde
KD4EG-15D220371192022-12-06 12:32:0437.0704-79.472310510615115Clb=3.9m/s t=-65.4C h=-1.0% p=-1.0hPa 404.010 MHz Type=DFM17 ser=22037119 Radiosonde
KG4IFE-1D220371192022-12-06 12:31:4537.071-79.474810810415078Clb=4.8m/s t=-65.3C h=-1.0% p=-1.0hPa 404.010 MHz Type=DFM17 ser=22037119 Radiosonde
W4DEX-14D220371192022-12-06 12:31:3737.0711-79.475410310615065Clb=5.4m/s Type=DFM17 ser=[BC]22037119 Details on http://radiosondy.info
W4DEX-14D220371192022-12-06 12:31:0337.0724-79.480111010714990Clb=3.6m/s Type=DFM17 ser=[BC]22037119 Details on http://radiosondy.info
W4KZK-14D220371192022-12-06 12:30:5437.0731-79.48211010714967Clb=5.6m/s t=-65.0C h=-1.0% p=-1.0hPa 404.010 MHz Type=DFM17 ser=22037119 Radiosonde
KD4EG-15D220371192022-12-06 12:30:5137.0731-79.48211010714967Clb=5.6m/s t=-65.0C h=-1.0% p=-1.0hPa 404.010 MHz Type=DFM17 ser=22037119 Radiosonde
KG4IFE-1D220371192022-12-06 12:30:3137.0739-79.484411510614931Clb=5.5m/s t=-64.9C h=-1.0% p=-1.0hPa 404.010 MHz Type=DFM17 ser=22037119 Radiosonde
W4DEX-14D220371192022-12-06 12:30:2637.074-79.484711710614922Clb=4.7m/s Type=DFM17 ser=[BC]22037119 Details on http://radiosondy.info
W4DEX-14D220371192022-12-06 12:29:5237.0758-79.489111410614848Clb=5.8m/s Type=DFM17 ser=[BC]22037119 Details on http://radiosondy.info
KD4EG-15D220371192022-12-06 12:29:3737.0767-79.491411511314813Clb=3.8m/s t=-65.2C h=-1.0% p=-1.0hPa 404.010 MHz Type=DFM17 ser=22037119 Radiosonde
W4KZK-14D220371192022-12-06 12:29:3637.0767-79.491411511314813Clb=3.8m/s t=-65.2C h=-1.0% p=-1.0hPa 404.010 MHz Type=DFM17 ser=22037119 Radiosonde
KG4IFE-1D220371192022-12-06 12:29:1837.0776-79.493512010014779Clb=5.5m/s t=-64.9C h=-1.0% p=-1.0hPa 404.010 MHz Type=DFM17 ser=22037119 Radiosonde
W4DEX-14D220371192022-12-06 12:29:1737.0776-79.493512110914775Clb=2.2m/s Type=DFM17 ser=[BC]22037119 Details on http://radiosondy.info
W4DEX-14D220371192022-12-06 12:28:4337.0795-79.49811711514704Clb=4.9m/s Type=DFM17 ser=[BC]22037119 Details on http://radiosondy.info
KD4EG-15D220371192022-12-06 12:28:2637.0808-79.500712111314666Clb=6.1m/s t=-64.1C h=-1.0% p=-1.0hPa 404.010 MHz Type=DFM17 ser=22037119 Radiosonde
W4KZK-14D220371192022-12-06 12:28:2037.0811-79.501311710614656Clb=4.0m/s t=-64.1C h=-1.0% p=-1.0hPa 404.010 MHz Type=DFM17 ser=22037119 Radiosonde
W4DEX-14D220371192022-12-06 12:28:0837.0816-79.502611911914632Clb=4.4m/s Type=DFM17 ser=[BC]22037119 Details on http://radiosondy.info
KG4IFE-1D220371192022-12-06 12:28:0737.0819-79.503211911514628Clb=3.6m/s t=-64.0C h=-1.0% p=-1.0hPa 404.010 MHz Type=DFM17 ser=22037119 Radiosonde
W4DEX-14D220371192022-12-06 12:27:3637.0837-79.507511812614561Clb=3.6m/s Type=DFM17 ser=[BC]22037119 Details on http://radiosondy.info
KD4EG-15D220371192022-12-06 12:27:1737.0852-79.510911912214516Clb=6.0m/s t=-63.6C h=-1.0% p=-1.0hPa 404.010 MHz Type=DFM17 ser=22037119 Radiosonde
W4KZK-14D220371192022-12-06 12:27:0737.086-79.512612013314492Clb=4.3m/s t=-63.5C h=-1.0% p=-1.0hPa 404.010 MHz Type=DFM17 ser=22037119 Radiosonde
W4DEX-14D220371192022-12-06 12:27:0237.086-79.512612113314487Clb=5.9m/s Type=DFM17 ser=[BC]22037119 Details on http://radiosondy.info
KG4IFE-1D220371192022-12-06 12:27:0037.0865-79.513811513314478Clb=4.4m/s t=-63.4C h=-1.0% p=-1.0hPa 404.010 MHz Type=DFM17 ser=22037119 Radiosonde
W4DEX-14D220371192022-12-06 12:26:3437.0883-79.518212013914420Clb=4.8m/s Type=DFM17 ser=[BC]22037119 Details on http://radiosondy.info
KD4EG-15D220371192022-12-06 12:26:1337.0901-79.522312014314374Clb=5.7m/s t=-63.6C h=-1.0% p=-1.0hPa 404.010 MHz Type=DFM17 ser=22037119 Radiosonde
W4DEX-14D220371192022-12-06 12:26:1237.0909-79.523912014414352Clb=5.7m/s Type=DFM17 ser=[BC]22037119 Details on http://radiosondy.info
W4KZK-14D220371192022-12-06 12:25:5737.0914-79.525111814414343Clb=4.2m/s t=-63.7C h=-1.0% p=-1.0hPa 404.010 MHz Type=DFM17 ser=22037119 Radiosonde
KG4IFE-1D220371192022-12-06 12:25:5537.0916-79.525511714414338Clb=5.7m/s t=-63.7C h=-1.0% p=-1.0hPa 404.010 MHz Type=DFM17 ser=22037119 Radiosonde
W4DEX-14D220371192022-12-06 12:25:2837.0934-79.529911815014284Clb=5.3m/s Type=DFM17 ser=[BC]22037119 Details on http://radiosondy.info
KD4EG-15D220371192022-12-06 12:24:5937.0957-79.535411515414230Clb=2.7m/s t=-63.7C h=-1.0% p=-1.0hPa 404.010 MHz Type=DFM17 ser=22037119 Radiosonde
W4DEX-14D220371192022-12-06 12:24:4637.096-79.536111615014217Clb=2.9m/s Type=DFM17 ser=[BC]22037119 Details on http://radiosondy.info
KG4IFE-1D220371192022-12-06 12:24:4037.0968-79.538411416714199Clb=4.3m/s t=-63.9C h=-1.0% p=-1.0hPa 404.010 MHz Type=DFM17 ser=22037119 Radiosonde
W4KZK-14D220371192022-12-06 12:24:3837.097-79.538811316514196Clb=2.6m/s t=-63.9C h=-1.0% p=-1.0hPa 404.010 MHz Type=DFM17 ser=22037119 Radiosonde
W4DEX-14D220371192022-12-06 12:24:1337.0982-79.542611515014152Clb=3.5m/s Type=DFM17 ser=[BC]22037119 Details on http://radiosondy.info
KD4EG-15D220371192022-12-06 12:23:4537.1001-79.548211215014099Clb=4.1m/s t=-64.5C h=-1.0% p=-1.0hPa 404.010 MHz Type=DFM17 ser=22037119 Radiosonde
W4DEX-14D220371192022-12-06 12:23:3737.1004-79.54911415014086Clb=3.1m/s Type=DFM17 ser=[BC]22037119 Details on http://radiosondy.info
KG4IFE-1D220371192022-12-06 12:23:2737.1014-79.55211215714060Clb=6.8m/s t=-64.5C h=-1.0% p=-1.0hPa 404.010 MHz Type=DFM17 ser=22037119 Radiosonde
W4KZK-14D220371192022-12-06 12:23:2237.1017-79.55311215214050Clb=5.9m/s t=-64.5C h=-1.0% p=-1.0hPa 404.010 MHz Type=DFM17 ser=22037119 Radiosonde
W4DEX-14D220371192022-12-06 12:23:0337.1026-79.555511416114016Clb=4.2m/s Type=DFM17 ser=[BC]22037119 Details on http://radiosondy.info
KD4EG-15D220371192022-12-06 12:22:3037.1049-79.561911317413957Clb=3.9m/s t=-64.8C h=-1.0% p=-1.0hPa 404.010 MHz Type=DFM17 ser=22037119 Radiosonde
W4DEX-14D220371192022-12-06 12:22:2337.1051-79.562411316513948Clb=5.5m/s Type=DFM17 ser=[BC]22037119 Details on http://radiosondy.info
KG4IFE-1D220371192022-12-06 12:22:1137.1063-79.565811315613921Clb=3.8m/s t=-65.0C h=-1.0% p=-1.0hPa 404.010 MHz Type=DFM17 ser=22037119 Radiosonde
W4KZK-14D220371192022-12-06 12:21:5937.1071-79.568111315413899Clb=3.5m/s t=-65.1C h=-1.0% p=-1.0hPa 404.010 MHz Type=DFM17 ser=22037119 Radiosonde
W4DEX-14D220371192022-12-06 12:21:4837.1076-79.569511516513882Clb=4.4m/s Type=DFM17 ser=[BC]22037119 Details on http://radiosondy.info
KD4EG-15D220371192022-12-06 12:21:1537.1101-79.576611117013821Clb=5.9m/s t=-64.9C h=-1.0% p=-1.0hPa 404.010 MHz Type=DFM17 ser=22037119 Radiosonde
W4DEX-14D220371192022-12-06 12:21:1137.1101-79.576611216913816Clb=3.6m/s Type=DFM17 ser=[BC]22037119 Details on http://radiosondy.info
KG4IFE-1D220371192022-12-06 12:20:5237.1112-79.580611017813788Clb=3.5m/s t=-64.7C h=-1.0% p=-1.0hPa 404.010 MHz Type=DFM17 ser=22037119 Radiosonde
W4KZK-14D220371192022-12-06 12:20:3537.1123-79.58411015413758Clb=4.2m/s t=-64.6C h=-1.0% p=-1.0hPa 404.010 MHz Type=DFM17 ser=22037119 Radiosonde
W4DEX-14D220371192022-12-06 12:20:3037.1123-79.583911116513754Clb=3.8m/s Type=DFM17 ser=[BC]22037119 Details on http://radiosondy.info
KD4EG-15D220371192022-12-06 12:19:3137.1146-79.591711015413690Clb=4.2m/s t=-64.1C h=-1.0% p=-1.0hPa 404.010 MHz Type=DFM17 ser=22037119 Radiosonde
KG4IFE-1D220371192022-12-06 12:19:0237.1157-79.595511016913656Clb=3.2m/s t=-64.3C h=-1.0% p=-1.0hPa 404.010 MHz Type=DFM17 ser=22037119 Radiosonde
W4DEX-14D220371192022-12-06 12:18:4537.1166-79.598311116513625Clb=4.8m/s Type=DFM17 ser=[BC]22037119 Details on http://radiosondy.info
W4KZK-14D220371192022-12-06 12:18:4337.117-79.599810917213616Clb=5.9m/s t=-64.2C h=-1.0% p=-1.0hPa 404.010 MHz Type=DFM17 ser=22037119 Radiosonde
W4DEX-14D220371192022-12-06 12:18:0737.1187-79.605611016713561Clb=5.6m/s Type=DFM17 ser=[BC]22037119 Details on http://radiosondy.info
KD4EG-15D220371192022-12-06 12:18:0537.1191-79.60711016913552Clb=5.4m/s t=-64.1C h=-1.0% p=-1.0hPa 404.010 MHz Type=DFM17 ser=22037119 Radiosonde
KG4IFE-1D220371192022-12-06 12:17:4837.1202-79.610510817013520Clb=3.5m/s t=-64.1C h=-1.0% p=-1.0hPa 404.010 MHz Type=DFM17 ser=22037119 Radiosonde
W4DEX-14D220371192022-12-06 12:17:3437.1209-79.612911116913493Clb=4.8m/s Type=DFM17 ser=[BC]22037119 Details on http://radiosondy.info
W4KZK-14D220371192022-12-06 12:17:2437.1218-79.61611017013472Clb=4.1m/s t=-63.9C h=-1.0% p=-1.0hPa 404.010 MHz Type=DFM17 ser=22037119 Radiosonde
W4DEX-14D220371192022-12-06 12:17:0237.1231-79.620410817013427Clb=3.8m/s Type=DFM17 ser=[BC]22037119 Details on http://radiosondy.info
KD4EG-15D220371192022-12-06 12:16:5737.1235-79.621911015613418Clb=5.0m/s t=-63.8C h=-1.0% p=-1.0hPa 404.010 MHz Type=DFM17 ser=22037119 Radiosonde
KG4IFE-1D220371192022-12-06 12:16:4037.1248-79.626410817213379Clb=4.1m/s t=-63.7C h=-1.0% p=-1.0hPa 404.010 MHz Type=DFM17 ser=22037119 Radiosonde
W4DEX-14D220371192022-12-06 12:16:3037.1252-79.627910817613361Clb=4.3m/s Type=DFM17 ser=[BC]22037119 Details on http://radiosondy.info
W4KZK-14D220371192022-12-06 12:16:0737.1266-79.633111017213322Clb=3.3m/s t=-63.4C h=-1.0% p=-1.0hPa 404.010 MHz Type=DFM17 ser=22037119 Radiosonde
W4DEX-14D220371192022-12-06 12:16:0037.1272-79.635711117413294Clb=4.5m/s Type=DFM17 ser=[BC]22037119 Details on http://radiosondy.info
KG4IFE-1D220371192022-12-06 12:15:5937.1287-79.641910718013241Clb=5.4m/s t=-63.0C h=-1.0% p=-1.0hPa 404.010 MHz Type=DFM17 ser=22037119 Radiosonde
W4KZK-14D220371192022-12-06 12:15:5837.1306-79.649710517013171Clb=6.1m/s t=-62.8C h=-1.0% p=-1.0hPa 404.010 MHz Type=DFM17 ser=22037119 Radiosonde
W4DEX-14D220371192022-12-06 12:15:5737.1309-79.651310717213152Clb=3.7m/s Type=DFM17 ser=[BC]22037119 Details on http://radiosondy.info
KG4IFE-1D220371192022-12-06 12:15:5637.1325-79.65810416913095Clb=6.2m/s t=-62.7C h=-1.0% p=-1.0hPa 404.010 MHz Type=DFM17 ser=22037119 Radiosonde
W4KZK-14D220371192022-12-06 12:15:5537.1345-79.666310616713011Clb=6.2m/s t=-62.1C h=-1.0% p=-1.0hPa 404.010 MHz Type=DFM17 ser=22037119 Radiosonde
W4DEX-14D220371192022-12-06 12:15:5437.1345-79.666310716113006Clb=4.3m/s Type=DFM17 ser=[BC]22037119 Details on http://radiosondy.info
KG4IFE-1D220371192022-12-06 12:15:5337.1361-79.67310315012942Clb=3.5m/s t=-61.8C h=-1.0% p=-1.0hPa 404.010 MHz Type=DFM17 ser=22037119 Radiosonde
W4DEX-14D220371192022-12-06 12:15:5137.1379-79.680410815012859Clb=6.0m/s Type=DFM17 ser=[BC]22037119 Details on http://radiosondy.info
W4KZK-14D220371192022-12-06 12:15:5037.1383-79.682210713712845Clb=4.2m/s t=-61.8C h=-1.0% p=-1.0hPa 404.010 MHz Type=DFM17 ser=22037119 Radiosonde
KG4IFE-1D220371192022-12-06 12:15:4937.1396-79.68710714812794Clb=6.3m/s t=-62.0C h=-1.0% p=-1.0hPa 404.010 MHz Type=DFM17 ser=22037119 Radiosonde
W4DEX-14D220371192022-12-06 12:15:4837.1413-79.693810715212720Clb=4.7m/s Type=DFM17 ser=[BC]22037119 Details on http://radiosondy.info
W4KZK-14D220371192022-12-06 12:15:4737.142-79.696411014612697Clb=4.8m/s t=-62.2C h=-1.0% p=-1.0hPa 404.010 MHz Type=DFM17 ser=22037119 Radiosonde
W4DEX-14D220371192022-12-06 12:15:4637.1431-79.700510715012653Clb=5.4m/s Type=DFM17 ser=[BC]22037119 Details on http://radiosondy.info
W4DEX-14D220371192022-12-06 12:15:4537.1447-79.707210414812588Clb=4.7m/s Type=DFM17 ser=[BC]22037119 Details on http://radiosondy.info
W4KZK-14D220371192022-12-06 12:15:4237.1456-79.711210514612553Clb=5.5m/s t=-62.4C h=-1.0% p=-1.0hPa 404.010 MHz Type=DFM17 ser=22037119 Radiosonde
KD4EG-15D220371192022-12-06 12:15:4137.1457-79.711610314112549Clb=3.3m/s t=-62.4C h=-1.0% p=-1.0hPa 404.010 MHz Type=DFM17 ser=22037119 Radiosonde
W4DEX-14D220371192022-12-06 12:15:3337.1462-79.713710714112525Clb=3.3m/s Type=DFM17 ser=[BC]22037119 Details on http://radiosondy.info
KG4IFE-1D220371192022-12-06 12:15:3237.1465-79.71510714412516Clb=3.0m/s t=-62.5C h=-1.0% p=-1.0hPa 404.010 MHz Type=DFM17 ser=22037119 Radiosonde
W4DEX-14D220371192022-12-06 12:15:2437.148-79.7211014412460Clb=5.5m/s Type=DFM17 ser=[BC]22037119 Details on http://radiosondy.info
KD4EG-15D220371192022-12-06 12:15:1637.1493-79.724710913912417Clb=4.0m/s t=-62.1C h=-1.0% p=-1.0hPa 404.010 MHz Type=DFM17 ser=22037119 Radiosonde
W4KZK-14D220371192022-12-06 12:15:1437.1495-79.725510915012407Clb=3.0m/s t=-62.1C h=-1.0% p=-1.0hPa 404.010 MHz Type=DFM17 ser=22037119 Radiosonde
W4DEX-14D220371192022-12-06 12:15:0837.1498-79.726411114812395Clb=4.1m/s Type=DFM17 ser=[BC]22037119 Details on http://radiosondy.info
KG4IFE-1D220371192022-12-06 12:15:0637.1503-79.728110814412381Clb=5.5m/s t=-61.9C h=-1.0% p=-1.0hPa 404.010 MHz Type=DFM17 ser=22037119 Radiosonde
W4DEX-14D220371192022-12-06 12:14:5337.1516-79.73310615412329Clb=2.7m/s Type=DFM17 ser=[BC]22037119 Details on http://radiosondy.info
KD4EG-15D220371192022-12-06 12:14:3137.1529-79.738510815012281Clb=4.8m/s t=-61.5C h=-1.0% p=-1.0hPa 404.010 MHz Type=DFM17 ser=22037119 Radiosonde
W4KZK-14D220371192022-12-06 12:14:2337.1532-79.739910516112268Clb=5.6m/s t=-61.6C h=-1.0% p=-1.0hPa 404.010 MHz Type=DFM17 ser=22037119 Radiosonde
W4DEX-14D220371192022-12-06 12:14:1937.1532-79.739910615012265Clb=2.2m/s Type=DFM17 ser=[BC]22037119 Details on http://radiosondy.info
KG4IFE-1D220371192022-12-06 12:14:1237.1537-79.742110415912246Clb=6.1m/s t=-61.6C h=-1.0% p=-1.0hPa 404.010 MHz Type=DFM17 ser=22037119 Radiosonde
W4DEX-14D220371192022-12-06 12:13:4837.1546-79.746710314812195Clb=5.1m/s Type=DFM17 ser=[BC]22037119 Details on http://radiosondy.info
KD4EG-15D220371192022-12-06 12:13:2437.1559-79.752410414812142Clb=5.8m/s t=-61.0C h=-1.0% p=-1.0hPa 404.010 MHz Type=DFM17 ser=22037119 Radiosonde
W4DEX-14D220371192022-12-06 12:13:1737.1561-79.753310614412129Clb=6.3m/s Type=DFM17 ser=[BC]22037119 Details on http://radiosondy.info
W4KZK-14D220371192022-12-06 12:13:1237.1567-79.756410413712101Clb=4.3m/s t=-60.8C h=-1.0% p=-1.0hPa 404.010 MHz Type=DFM17 ser=22037119 Radiosonde
KG4IFE-1D220371192022-12-06 12:13:0637.1567-79.756410413712101Clb=4.3m/s t=-60.8C h=-1.0% p=-1.0hPa 404.010 MHz Type=DFM17 ser=22037119 Radiosonde
W4DEX-14D220371192022-12-06 12:12:4037.1576-79.759810614412065Clb=2.4m/s Type=DFM17 ser=[BC]22037119 Details on http://radiosondy.info
KD4EG-15D220371192022-12-06 12:12:1237.1592-79.765810614412008Clb=5.7m/s t=-60.4C h=-1.0% p=-1.0hPa 404.010 MHz Type=DFM17 ser=22037119 Radiosonde
W4DEX-14D220371192022-12-06 12:12:0537.1593-79.766310614112000Clb=3.2m/s Type=DFM17 ser=[BC]22037119 Details on http://radiosondy.info
W4KZK-14D220371192022-12-06 12:11:5537.1601-79.769211213111973Clb=5.5m/s t=-60.2C h=-1.0% p=-1.0hPa 404.010 MHz Type=DFM17 ser=22037119 Radiosonde
W4DEX-14D220371192022-12-06 12:11:3137.161-79.772511114311934Clb=3.8m/s Type=DFM17 ser=[BC]22037119 Details on http://radiosondy.info
KD4EG-15D220371192022-12-06 12:11:0037.1629-79.778711215011870Clb=5.2m/s t=-59.6C h=-1.0% p=-1.0hPa 404.010 MHz Type=DFM17 ser=22037119 Radiosonde
W4DEX-14D220371192022-12-06 12:10:5637.1629-79.778711214111866Clb=3.3m/s Type=DFM17 ser=[BC]22037119 Details on http://radiosondy.info
KG4IFE-1D220371192022-12-06 12:10:4037.164-79.78211113011834Clb=5.5m/s t=-59.3C h=-1.0% p=-1.0hPa 404.010 MHz Type=DFM17 ser=22037119 Radiosonde
W4KZK-14D220371192022-12-06 12:10:3637.1642-79.782811114411825Clb=6.6m/s t=-59.3C h=-1.0% p=-1.0hPa 404.010 MHz Type=DFM17 ser=22037119 Radiosonde
W4DEX-14D220371192022-12-06 12:10:2137.2312-80.03611061209014Clb=4.7m/s Type=DFM17 ser=[BC]22037119 Details on http://radiosondy.info
W4DEX-14D220371192022-12-06 12:09:3637.2322-80.0416981158956Clb=3.0m/s Type=DFM17 ser=[BC]22037119 Details on http://radiosondy.info
KD4EG-15D220371192022-12-06 12:09:1837.2327-80.04441051178927Clb=2.7m/s t=-38.2C h=-1.0% p=-1.0hPa 404.010 MHz Type=DFM17 ser=22037119 Radiosonde
W4DEX-14D220371192022-12-06 12:08:5637.2331-80.04691051138893Clb=6.0m/s Type=DFM17 ser=[BC]22037119 Details on http://radiosondy.info
W4DEX-14D220371192022-12-06 12:08:2037.234-80.05211061078829Clb=5.6m/s Type=DFM17 ser=[BC]22037119 Details on http://radiosondy.info
KD4EG-15D220371192022-12-06 12:07:5837.2345-80.0551991078796Clb=3.9m/s t=-37.2C h=-1.0% p=-1.0hPa 404.010 MHz Type=DFM17 ser=22037119 Radiosonde
W4DEX-14D220371192022-12-06 12:07:3937.2348-80.05711031048768Clb=2.7m/s Type=DFM17 ser=[BC]22037119 Details on http://radiosondy.info
KG4IFE-1D220371192022-12-06 12:07:3637.235-80.058100948761Clb=3.9m/s t=-36.9C h=-1.0% p=-1.0hPa 404.010 MHz Type=DFM17 ser=22037119 Radiosonde
W4DEX-14D220371192022-12-06 12:07:0237.2355-80.06191001048703Clb=2.5m/s Type=DFM17 ser=[BC]22037119 Details on http://radiosondy.info
KD4EG-15D220371192022-12-06 12:06:4437.2361-80.06541021078661Clb=3.2m/s t=-36.1C h=-1.0% p=-1.0hPa 404.010 MHz Type=DFM17 ser=22037119 Radiosonde
W4DEX-14D220371192022-12-06 12:06:3037.2363-80.0667981028640Clb=2.9m/s Type=DFM17 ser=[BC]22037119 Details on http://radiosondy.info
KG4IFE-1D220371192022-12-06 12:06:2537.2365-80.0679105968626Clb=4.2m/s t=-35.9C h=-1.0% p=-1.0hPa 404.010 MHz Type=DFM17 ser=22037119 Radiosonde
W4DEX-14D220371192022-12-06 12:05:5537.237-80.07131061008580Clb=4.0m/s Type=DFM17 ser=[BC]22037119 Details on http://radiosondy.info
KD4EG-15D220371192022-12-06 12:05:3237.2376-80.074798918537Clb=3.2m/s t=-35.1C h=-1.0% p=-1.0hPa 404.010 MHz Type=DFM17 ser=22037119 Radiosonde
W4DEX-14D220371192022-12-06 12:05:1837.2378-80.07591021008516Clb=3.4m/s Type=DFM17 ser=[BC]22037119 Details on http://radiosondy.info
KG4IFE-1D220371192022-12-06 12:05:1037.2381-80.077499948498Clb=5.0m/s t=-34.8C h=-1.0% p=-1.0hPa 404.010 MHz Type=DFM17 ser=22037119 Radiosonde
W4DEX-14D220371192022-12-06 12:04:4037.2386-80.080596988458Clb=3.9m/s Type=DFM17 ser=[BC]22037119 Details on http://radiosondy.info
KD4EG-15D220371192022-12-06 12:04:1137.2392-80.0844100988409Clb=4.6m/s t=-33.9C h=-1.0% p=-1.0hPa 404.010 MHz Type=DFM17 ser=22037119 Radiosonde
W4DEX-14D220371192022-12-06 12:04:0037.2393-80.08598988395Clb=5.6m/s Type=DFM17 ser=[BC]22037119 Details on http://radiosondy.info
KG4IFE-1D220371192022-12-06 12:03:5137.2396-80.087196938369Clb=2.7m/s t=-33.6C h=-1.0% p=-1.0hPa 404.010 MHz Type=DFM17 ser=22037119 Radiosonde
W4DEX-14D220371192022-12-06 12:03:2437.2399-80.0895103968330Clb=5.4m/s Type=DFM17 ser=[BC]22037119 Details on http://radiosondy.info
KD4EG-15D220371192022-12-06 12:02:5837.2406-80.0933931008281Clb=3.2m/s t=-32.9C h=-1.0% p=-1.0hPa 404.010 MHz Type=DFM17 ser=22037119 Radiosonde
W4DEX-14D220371192022-12-06 12:02:5337.2407-80.0939104988268Clb=2.7m/s Type=DFM17 ser=[BC]22037119 Details on http://radiosondy.info
KG4IFE-1D220371192022-12-06 12:02:4137.241-80.096981028242Clb=5.9m/s t=-32.5C h=-1.0% p=-1.0hPa 404.010 MHz Type=DFM17 ser=22037119 Radiosonde
W4DEX-14D220371192022-12-06 12:02:2137.2413-80.0984991008207Clb=3.0m/s Type=DFM17 ser=[BC]22037119 Details on http://radiosondy.info
KD4EG-15D220371192022-12-06 12:01:5237.242-80.1033101948145Clb=4.1m/s t=-31.7C h=-1.0% p=-1.0hPa 404.010 MHz Type=DFM17 ser=22037119 Radiosonde
W4DEX-14D220371192022-12-06 12:01:4837.242-80.103106988145Clb=4.1m/s Type=DFM17 ser=[BC]22037119 Details on http://radiosondy.info
KG4IFE-1D220371192022-12-06 12:01:3237.2421-80.105595948113Clb=6.3m/s t=-31.5C h=-1.0% p=-1.0hPa 404.010 MHz Type=DFM17 ser=22037119 Radiosonde
W4DEX-14D220371192022-12-06 12:01:1637.2424-80.107697988077Clb=5.3m/s Type=DFM17 ser=[BC]22037119 Details on http://radiosondy.info
KD4EG-15D220371192022-12-06 12:00:4737.2428-80.1125921048014Clb=3.5m/s t=-30.7C h=-1.0% p=-1.0hPa 404.010 MHz Type=DFM17 ser=22037119 Radiosonde
W4DEX-14D220371192022-12-06 12:00:4637.2427-80.1122991008014Clb=3.5m/s Type=DFM17 ser=[BC]22037119 Details on http://radiosondy.info
KG4IFE-1D220371192022-12-06 12:00:2637.2429-80.11598937982Clb=3.1m/s t=-30.4C h=-1.0% p=-1.0hPa 404.010 MHz Type=DFM17 ser=22037119 Radiosonde
W4DEX-14D220371192022-12-06 12:00:1037.243-80.116893987954Clb=3.6m/s Type=DFM17 ser=[BC]22037119 Details on http://radiosondy.info
W4DEX-14D220371192022-12-06 11:59:2537.2432-80.121592947891Clb=3.5m/s Type=DFM17 ser=[BC]22037119 Details on http://radiosondy.info
KD4EG-15D220371192022-12-06 11:59:2437.2432-80.12297917886Clb=5.2m/s t=-29.6C h=-1.0% p=-1.0hPa 404.010 MHz Type=DFM17 ser=22037119 Radiosonde
KG4IFE-1D220371192022-12-06 11:59:0237.2432-80.124491937855Clb=4.3m/s t=-29.3C h=-1.0% p=-1.0hPa 404.010 MHz Type=DFM17 ser=22037119 Radiosonde
W4DEX-14D220371192022-12-06 11:58:4837.2433-80.125990987831Clb=5.1m/s Type=DFM17 ser=[BC]22037119 Details on http://radiosondy.info
W4DEX-14D220371192022-12-06 11:58:0837.2433-80.130590987771Clb=4.9m/s Type=DFM17 ser=[BC]22037119 Details on http://radiosondy.info
KD4EG-15D220371192022-12-06 11:58:0137.2433-80.131489917764Clb=4.7m/s t=-28.5C h=-1.0% p=-1.0hPa 404.011 MHz Type=DFM17 ser=22037119 Radiosonde
KG4IFE-1D220371192022-12-06 11:57:4037.2433-80.1339841027732Clb=3.9m/s t=-28.3C h=-1.0% p=-1.0hPa 404.010 MHz Type=DFM17 ser=22037119 Radiosonde
W4DEX-14D220371192022-12-06 11:57:2837.2433-80.1351941027712Clb=4.3m/s Type=DFM17 ser=[BC]22037119 Details on http://radiosondy.info
W4DEX-14D220371192022-12-06 11:56:5737.2432-80.1399881007651Clb=4.7m/s Type=DFM17 ser=[BC]22037119 Details on http://radiosondy.info
KD4EG-15D220371192022-12-06 11:56:5237.2431-80.1412851117639Clb=4.7m/s t=-27.5C h=-1.0% p=-1.0hPa 404.011 MHz Type=DFM17 ser=22037119 Radiosonde
KG4IFE-1D220371192022-12-06 11:56:3237.243-80.1437881007607Clb=5.5m/s t=-27.3C h=-1.0% p=-1.0hPa 404.010 MHz Type=DFM17 ser=22037119 Radiosonde
W4DEX-14D220371192022-12-06 11:56:2537.243-80.1446831047588Clb=3.5m/s Type=DFM17 ser=[BC]22037119 Details on http://radiosondy.info
W4DEX-14D220371192022-12-06 11:55:5537.2427-80.1495871047530Clb=5.2m/s Type=DFM17 ser=[BC]22037119 Details on http://radiosondy.info
KD4EG-15D220371192022-12-06 11:55:4737.2427-80.1514861137510Clb=3.6m/s t=-26.4C h=-1.0% p=-1.0hPa 404.011 MHz Type=DFM17 ser=22037119 Radiosonde
KG4IFE-1D220371192022-12-06 11:55:2837.2426-80.153783987482Clb=4.8m/s t=-26.1C h=-1.0% p=-1.0hPa 404.010 MHz Type=DFM17 ser=22037119 Radiosonde
W4DEX-14D220371192022-12-06 11:55:2137.2425-80.1543891067471Clb=3.1m/s Type=DFM17 ser=[BC]22037119 Details on http://radiosondy.info
W4DEX-14D220371192022-12-06 11:54:4537.2423-80.1593881047411Clb=4.5m/s Type=DFM17 ser=[BC]22037119 Details on http://radiosondy.info
KD4EG-15D220371192022-12-06 11:54:3537.2423-80.1612851047392Clb=3.9m/s t=-25.4C h=-1.0% p=-1.0hPa 404.011 MHz Type=DFM17 ser=22037119 Radiosonde
KG4IFE-1D220371192022-12-06 11:54:1337.2422-80.1641891067354Clb=2.9m/s t=-25.2C h=-1.0% p=-1.0hPa 404.010 MHz Type=DFM17 ser=22037119 Radiosonde
W4DEX-14D220371192022-12-06 11:54:0937.2422-80.1641901047350Clb=5.4m/s Type=DFM17 ser=[BC]22037119 Details on http://radiosondy.info
W4DEX-14D220371192022-12-06 11:53:3337.2423-80.169951007290Clb=4.8m/s Type=DFM17 ser=[BC]22037119 Details on http://radiosondy.info
KD4EG-15D220371192022-12-06 11:53:1937.2423-80.171184937265Clb=4.6m/s t=-25.0C h=-1.0% p=-1.0hPa 404.011 MHz Type=DFM17 ser=22037119 Radiosonde
KG4IFE-1D220371192022-12-06 11:52:5637.2423-80.1736891007232Clb=2.8m/s t=-25.0C h=-1.0% p=-1.0hPa 404.010 MHz Type=DFM17 ser=22037119 Radiosonde
W4DEX-14D220371192022-12-06 11:52:5337.2423-80.1736901007227Clb=5.9m/s Type=DFM17 ser=[BC]22037119 Details on http://radiosondy.info
W4DEX-14D220371192022-12-06 11:52:1737.2424-80.178394987166Clb=5.6m/s Type=DFM17 ser=[BC]22037119 Details on http://radiosondy.info
KD4EG-15D220371192022-12-06 11:51:5937.2425-80.180795967136Clb=4.5m/s t=-25.0C h=-1.0% p=-1.0hPa 404.011 MHz Type=DFM17 ser=22037119 Radiosonde
W4DEX-14D220371192022-12-06 11:51:5137.2427-80.182896967105Clb=4.5m/s Type=DFM17 ser=[BC]22037119 Details on http://radiosondy.info
W4DEX-14D220371192022-12-06 11:51:4537.2433-80.187393987043Clb=3.4m/s Type=DFM17 ser=[BC]22037119 Details on http://radiosondy.info
KD4EG-15D220371192022-12-06 11:51:3937.2435-80.19103947010Clb=5.4m/s t=-24.6C h=-1.0% p=-1.0hPa 404.011 MHz Type=DFM17 ser=22037119 Radiosonde
W4DEX-14D220371192022-12-06 11:51:2937.2438-80.19191031006984Clb=3.4m/s Type=DFM17 ser=[BC]22037119 Details on http://radiosondy.info
KG4IFE-1D220371192022-12-06 11:51:2837.2439-80.192598916980Clb=4.2m/s t=-24.5C h=-1.0% p=-1.0hPa 404.010 MHz Type=DFM17 ser=22037119 Radiosonde
W4DEX-14D220371192022-12-06 11:51:0637.2442-80.196599986922Clb=3.1m/s Type=DFM17 ser=[BC]22037119 Details on http://radiosondy.info
KD4EG-15D220371192022-12-06 11:50:5737.2446-80.1999981006883Clb=4.8m/s t=-24.5C h=-1.0% p=-1.0hPa 404.011 MHz Type=DFM17 ser=22037119 Radiosonde
W4DEX-14D220371192022-12-06 11:50:5137.2448-80.201102946864Clb=4.5m/s Type=DFM17 ser=[BC]22037119 Details on http://radiosondy.info
KG4IFE-1D220371192022-12-06 11:50:4937.245-80.2022981076850Clb=4.8m/s t=-24.7C h=-1.0% p=-1.0hPa 404.010 MHz Type=DFM17 ser=22037119 Radiosonde
W4DEX-14D220371192022-12-06 11:50:4737.2452-80.205497936789Clb=4.0m/s Type=DFM17 ser=[BC]22037119 Details on http://radiosondy.info
KD4EG-15D220371192022-12-06 11:50:3837.2453-80.208699936747Clb=3.6m/s t=-24.2C h=-1.0% p=-1.0hPa 404.011 MHz Type=DFM17 ser=22037119 Radiosonde
W4DEX-14D220371192022-12-06 11:50:2937.2453-80.209786916726Clb=4.0m/s Type=DFM17 ser=[BC]22037119 Details on http://radiosondy.info
KG4IFE-1D220371192022-12-06 11:50:2537.2453-80.211194966707Clb=4.7m/s t=-23.9C h=-1.0% p=-1.0hPa 404.010 MHz Type=DFM17 ser=22037119 Radiosonde
W4DEX-14D220371192022-12-06 11:50:1037.2452-80.213996856660Clb=6.8m/s Type=DFM17 ser=[BC]22037119 Details on http://radiosondy.info
KD4EG-15D220371192022-12-06 11:50:0137.2454-80.21798936594Clb=5.0m/s t=-22.9C h=-1.0% p=-1.0hPa 404.011 MHz Type=DFM17 ser=22037119 Radiosonde
W4DEX-14D220371192022-12-06 11:50:0037.2455-80.217997856579Clb=4.5m/s Type=DFM17 ser=[BC]22037119 Details on http://radiosondy.info
W4DEX-14D220371192022-12-06 11:49:5837.2456-80.221984876495Clb=6.4m/s Type=DFM17 ser=[BC]22037119 Details on http://radiosondy.info
KD4EG-15D220371192022-12-06 11:49:5437.2457-80.225487806438Clb=5.7m/s t=-21.4C h=-1.0% p=-1.0hPa 404.011 MHz Type=DFM17 ser=22037119 Radiosonde
W4DEX-14D220371192022-12-06 11:49:5337.2457-80.2259100836422Clb=3.7m/s Type=DFM17 ser=[BC]22037119 Details on http://radiosondy.info
KG4IFE-1D220371192022-12-06 11:49:5137.2457-80.227993816396Clb=4.0m/s t=-21.1C h=-1.0% p=-1.0hPa 404.010 MHz Type=DFM17 ser=22037119 Radiosonde
W4DEX-14D220371192022-12-06 11:49:4937.2457-80.229889786352Clb=3.9m/s Type=DFM17 ser=[BC]22037119 Details on http://radiosondy.info
KD4EG-15D220371192022-12-06 11:49:4437.2452-80.233291746290Clb=5.4m/s t=-20.3C h=-1.0% p=-1.0hPa 404.011 MHz Type=DFM17 ser=22037119 Radiosonde
W4DEX-14D220371192022-12-06 11:49:4337.2452-80.233493816279Clb=7.0m/s Type=DFM17 ser=[BC]22037119 Details on http://radiosondy.info
KG4IFE-1D220371192022-12-06 11:49:3837.2452-80.235588696248Clb=4.4m/s t=-20.0C h=-1.0% p=-1.0hPa 404.010 MHz Type=DFM17 ser=22037119 Radiosonde
W4DEX-14D220371192022-12-06 11:49:2737.245-80.237285766211Clb=3.6m/s Type=DFM17 ser=[BC]22037119 Details on http://radiosondy.info
KD4EG-15D220371192022-12-06 11:49:1137.2448-80.24182766145Clb=5.1m/s t=-19.1C h=-1.0% p=-1.0hPa 404.011 MHz Type=DFM17 ser=22037119 Radiosonde
KG4IFE-1D220371192022-12-06 11:49:0137.2446-80.243189746102Clb=4.2m/s t=-18.7C h=-1.0% p=-1.0hPa 404.010 MHz Type=DFM17 ser=22037119 Radiosonde
W4DEX-14D220371192022-12-06 11:48:5937.2446-80.244389726071Clb=4.0m/s Type=DFM17 ser=[BC]22037119 Details on http://radiosondy.info
W4DEX-14D220371192022-12-06 11:48:5137.244-80.247785745990Clb=5.2m/s Type=DFM17 ser=[BC]22037119 Details on http://radiosondy.info
KG4IFE-1D220371192022-12-06 11:48:5037.2439-80.250167805942Clb=7.7m/s t=-17.4C h=-1.0% p=-1.0hPa 404.010 MHz Type=DFM17 ser=22037119 Radiosonde
KD4EG-15D220371192022-12-06 11:48:4937.2432-80.254868595820Clb=4.4m/s t=-16.6C h=-1.0% p=-1.0hPa 404.011 MHz Type=DFM17 ser=22037119 Radiosonde
KG4IFE-1D220371192022-12-06 11:48:4837.2429-80.256377485781Clb=4.8m/s t=-16.2C h=-1.0% p=-1.0hPa 404.010 MHz Type=DFM17 ser=22037119 Radiosonde
W4DEX-14D220371192022-12-06 11:48:4737.2423-80.259670635678Clb=2.7m/s Type=DFM17 ser=[BC]22037119 Details on http://radiosondy.info
KD4EG-15D220371192022-12-06 11:48:4637.2421-80.260584695667Clb=3.0m/s t=-15.3C h=-1.0% p=-1.0hPa 404.011 MHz Type=DFM17 ser=22037119 Radiosonde
KG4IFE-1D220371192022-12-06 11:48:4537.2418-80.261970675633Clb=3.4m/s t=-15.0C h=-1.0% p=-1.0hPa 404.010 MHz Type=DFM17 ser=22037119 Radiosonde
W4DEX-14D220371192022-12-06 11:48:4437.2415-80.265386595538Clb=4.8m/s Type=DFM17 ser=[BC]22037119 Details on http://radiosondy.info
KD4EG-15D220371192022-12-06 11:48:4337.2413-80.266471725513Clb=3.2m/s t=-13.9C h=-1.0% p=-1.0hPa 404.011 MHz Type=DFM17 ser=22037119 Radiosonde
W4DEX-14D220371192022-12-06 11:48:4237.2407-80.270891565388Clb=3.5m/s Type=DFM17 ser=[BC]22037119 Details on http://radiosondy.info
KD4EG-15D220371192022-12-06 11:48:4137.2407-80.271795615356Clb=5.4m/s t=-13.2C h=-1.0% p=-1.0hPa 404.011 MHz Type=DFM17 ser=22037119 Radiosonde
KG4IFE-1D220371192022-12-06 11:48:4037.2406-80.273480545304Clb=4.6m/s t=-13.0C h=-1.0% p=-1.0hPa 404.010 MHz Type=DFM17 ser=22037119 Radiosonde
KD4EG-15D220371192022-12-06 11:48:3937.2407-80.277580615205Clb=4.3m/s t=-12.5C h=-1.0% p=-1.0hPa 404.011 MHz Type=DFM17 ser=22037119 Radiosonde
W4DEX-14D220371192022-12-06 11:48:3737.2406-80.282187675090Clb=5.9m/s Type=DFM17 ser=[BC]22037119 Details on http://radiosondy.info
KG4IFE-1D220371192022-12-06 11:48:3637.2408-80.285596785014Clb=6.2m/s t=-11.1C h=-1.0% p=-1.0hPa 404.010 MHz Type=DFM17 ser=22037119 Radiosonde
W4DEX-14D220371192022-12-06 11:48:3037.241-80.2883105784942Clb=5.9m/s Type=DFM17 ser=[BC]22037119 Details on http://radiosondy.info
KD4EG-15D220371192022-12-06 11:48:2137.2411-80.290699804902Clb=7.1m/s t=-10.2C h=-1.0% p=-1.0hPa 404.011 MHz Type=DFM17 ser=22037119 Radiosonde
W4DEX-14D220371192022-12-06 11:48:0537.2412-80.291990744860Clb=6.8m/s Type=DFM17 ser=[BC]22037119 Details on http://radiosondy.info
KG4IFE-1D220371192022-12-06 11:48:0337.2412-80.292493814855Clb=4.1m/s t=-9.8C h=-1.0% p=-1.0hPa 404.010 MHz Type=DFM17 ser=22037119 Radiosonde
W4DEX-14D220371192022-12-06 11:47:3237.2413-80.2954100804792Clb=3.8m/s Type=DFM17 ser=[BC]22037119 Details on http://radiosondy.info
KD4EG-15D220371192022-12-06 11:47:1437.2414-80.297896914742Clb=5.1m/s t=-9.0C h=-1.0% p=-1.0hPa 404.011 MHz Type=DFM17 ser=22037119 Radiosonde
W4DEX-14D220371192022-12-06 11:46:5837.2414-80.29985704709Clb=5.1m/s Type=DFM17 ser=[BC]22037119 Details on http://radiosondy.info
KG4IFE-1D220371192022-12-06 11:46:5537.2414-80.3100634689Clb=6.3m/s t=-8.6C h=-1.0% p=-1.0hPa 404.010 MHz Type=DFM17 ser=22037119 Radiosonde
W4DEX-14D220371192022-12-06 11:46:3237.2413-80.302385634629Clb=4.4m/s Type=DFM17 ser=[BC]22037119 Details on http://radiosondy.info
KD4EG-15D220371192022-12-06 11:46:1337.241-80.304583564582Clb=5.2m/s t=-8.9C h=-1.0% p=-1.0hPa 404.011 MHz Type=DFM17 ser=22037119 Radiosonde
W4DEX-14D220371192022-12-06 11:46:0337.241-80.305298744559Clb=4.4m/s Type=DFM17 ser=[BC]22037119 Details on http://radiosondy.info
KG4IFE-1D220371192022-12-06 11:45:5737.2411-80.306391804539Clb=4.6m/s t=-9.2C h=-1.0% p=-1.0hPa 404.010 MHz Type=DFM17 ser=22037119 Radiosonde
W4DEX-14D220371192022-12-06 11:45:3337.2412-80.308790694486Clb=4.8m/s Type=DFM17 ser=[BC]22037119 Details on http://radiosondy.info
KD4EG-15D220371192022-12-06 11:45:1337.2407-80.311270614428Clb=4.5m/s t=-9.7C h=-1.0% p=-1.0hPa 404.011 MHz Type=DFM17 ser=22037119 Radiosonde
W4DEX-14D220371192022-12-06 11:45:0537.2406-80.311871574410Clb=4.2m/s Type=DFM17 ser=[BC]22037119 Details on http://radiosondy.info
KG4IFE-1D220371192022-12-06 11:44:5737.2403-80.312979464383Clb=5.1m/s t=-9.7C h=-1.0% p=-1.0hPa 404.010 MHz Type=DFM17 ser=22037119 Radiosonde
W4DEX-14D220371192022-12-06 11:44:3637.2403-80.314592744331Clb=5.2m/s Type=DFM17 ser=[BC]22037119 Details on http://radiosondy.info
KD4EG-15D220371192022-12-06 11:44:1037.2402-80.317788674267Clb=5.0m/s t=-9.4C h=-1.0% p=-1.0hPa 404.011 MHz Type=DFM17 ser=22037119 Radiosonde
W4DEX-14D220371192022-12-06 11:44:0437.2402-80.317989674257Clb=4.8m/s Type=DFM17 ser=[BC]22037119 Details on http://radiosondy.info
KG4IFE-1D220371192022-12-06 11:43:5537.24-80.319478744228Clb=4.3m/s t=-9.2C h=-1.0% p=-1.0hPa 404.010 MHz Type=DFM17 ser=22037119 Radiosonde
W4DEX-14D220371192022-12-06 11:43:3737.2399-80.32186614187Clb=4.9m/s Type=DFM17 ser=[BC]22037119 Details on http://radiosondy.info
KD4EG-15D220371192022-12-06 11:43:1137.2393-80.323585594121Clb=4.8m/s t=-8.1C h=-1.0% p=-1.0hPa 404.011 MHz Type=DFM17 ser=22037119 Radiosonde
W4DEX-14D220371192022-12-06 11:43:0837.2393-80.323886704111Clb=4.7m/s Type=DFM17 ser=[BC]22037119 Details on http://radiosondy.info
KG4IFE-1D220371192022-12-06 11:42:5237.239-80.325580674074Clb=4.7m/s t=-7.2C h=-1.0% p=-1.0hPa 404.010 MHz Type=DFM17 ser=22037119 Radiosonde
W4DEX-14D220371192022-12-06 11:42:3337.2387-80.32773614034Clb=4.8m/s Type=DFM17 ser=[BC]22037119 Details on http://radiosondy.info
KD4EG-15D220371192022-12-06 11:42:0337.2377-80.329677483965Clb=5.1m/s t=-6.1C h=-1.0% p=-1.0hPa 404.011 MHz Type=DFM17 ser=22037119 Radiosonde
W4DEX-14D220371192022-12-06 11:42:0237.2377-80.329678673960Clb=4.4m/s Type=DFM17 ser=[BC]22037119 Details on http://radiosondy.info
KG4IFE-1D220371192022-12-06 11:41:4737.2373-80.331564693913Clb=5.4m/s t=-5.8C h=-1.0% p=-1.0hPa 404.010 MHz Type=DFM17 ser=22037119 Radiosonde
W4DEX-14D220371192022-12-06 11:41:3237.2369-80.332571593883Clb=4.3m/s Type=DFM17 ser=[BC]22037119 Details on http://radiosondy.info
W4DEX-14D220371192022-12-06 11:41:0437.2363-80.335148613808Clb=4.4m/s Type=DFM17 ser=[BC]22037119 Details on http://radiosondy.info
KD4EG-15D220371192022-12-06 11:41:0337.2362-80.335245523808Clb=4.4m/s t=-4.5C h=-1.0% p=-1.0hPa 404.011 MHz Type=DFM17 ser=22037119 Radiosonde
KG4IFE-1D220371192022-12-06 11:40:4737.2356-80.336656693758Clb=5.7m/s t=-4.1C h=-1.0% p=-1.0hPa 404.010 MHz Type=DFM17 ser=22037119 Radiosonde
W4DEX-14D220371192022-12-06 11:40:3637.2352-80.337673563726Clb=6.6m/s Type=DFM17 ser=[BC]22037119 Details on http://radiosondy.info
W4DEX-14D220371192022-12-06 11:40:1137.2344-80.3454563630Clb=6.6m/s Type=DFM17 ser=[BC]22037119 Details on http://radiosondy.info
KD4EG-15D220371192022-12-06 11:40:0837.2342-80.340250543623Clb=6.4m/s t=-2.8C h=-1.0% p=-1.0hPa 404.011 MHz Type=DFM17 ser=22037119 Radiosonde
KG4IFE-1D220371192022-12-06 11:39:5637.2334-80.341459653580Clb=4.4m/s t=-2.6C h=-1.0% p=-1.0hPa 404.010 MHz Type=DFM17 ser=22037119 Radiosonde
W4DEX-14D220371192022-12-06 11:39:5137.2332-80.342171503556Clb=4.6m/s Type=DFM17 ser=[BC]22037119 Details on http://radiosondy.info
W4DEX-14D220371192022-12-06 11:39:3837.2325-80.344355503484Clb=4.7m/s Type=DFM17 ser=[BC]22037119 Details on http://radiosondy.info
KD4EG-15D220371192022-12-06 11:39:3637.2321-80.344836433468Clb=5.2m/s t=-1.7C h=-1.0% p=-1.0hPa 404.011 MHz Type=DFM17 ser=22037119 Radiosonde
KG4IFE-1D220371192022-12-06 11:39:2737.2316-80.345760633428Clb=5.8m/s t=-1.5C h=-1.0% p=-1.0hPa 404.010 MHz Type=DFM17 ser=22037119 Radiosonde
W4DEX-14D220371192022-12-06 11:39:2237.2313-80.346143503405Clb=6.1m/s Type=DFM17 ser=[BC]22037119 Details on http://radiosondy.info
W4DEX-14D220371192022-12-06 11:39:0637.2303-80.34873373318Clb=6.9m/s Type=DFM17 ser=[BC]22037119 Details on http://radiosondy.info
KD4EG-15D220371192022-12-06 11:39:0337.2301-80.348553333296Clb=5.9m/s t=-0.8C h=-1.0% p=-1.0hPa 404.011 MHz Type=DFM17 ser=22037119 Radiosonde
KG4IFE-1D220371192022-12-06 11:38:5437.2298-80.349346353258Clb=5.0m/s t=-0.5C h=-1.0% p=-1.0hPa 404.010 MHz Type=DFM17 ser=22037119 Radiosonde
W4DEX-14D220371192022-12-06 11:38:5137.2296-80.349547563244Clb=6.4m/s Type=DFM17 ser=[BC]22037119 Details on http://radiosondy.info
W4DEX-14D220371192022-12-06 11:38:3637.2285-80.351659503169Clb=4.2m/s Type=DFM17 ser=[BC]22037119 Details on http://radiosondy.info
KD4EG-15D220371192022-12-06 11:38:3237.2281-80.352450483142Clb=7.2m/s t=0.2C h=-1.0% p=-1.0hPa 404.011 MHz Type=DFM17 ser=22037119 Radiosonde
KG4IFE-1D220371192022-12-06 11:38:2337.2275-80.353666723093Clb=6.3m/s t=0.4C h=-1.0% p=-1.0hPa 404.010 MHz Type=DFM17 ser=22037119 Radiosonde
W4DEX-14D220371192022-12-06 11:38:2237.2275-80.353667593088Clb=4.5m/s Type=DFM17 ser=[BC]22037119 Details on http://radiosondy.info
W4DEX-14D220371192022-12-06 11:38:0637.2267-80.356259483006Clb=6.1m/s Type=DFM Details on http://radiosondy.info
KD4EG-15D220371192022-12-06 11:38:0037.2262-80.357176442974Clb=3.9m/s t=1.1C h=-1.0% p=-1.0hPa 404.011 MHz Type=DFM17 ser=22037119 Radiosonde
KG4IFE-1D220371192022-12-06 11:37:5237.2259-80.358254562939Clb=3.8m/s t=1.3C h=-1.0% p=-1.0hPa 404.010 MHz Type=DFM17 ser=22037119 Radiosonde
W4DEX-14D220371192022-12-06 11:37:5137.2259-80.358157502935Clb=3.4m/s Type=DFM Details on http://radiosondy.info
W4DEX-14D220371192022-12-06 11:37:4037.2255-80.360572592862Clb=3.6m/s Type=DFM Details on http://radiosondy.info
KD4EG-15D220371192022-12-06 11:37:3237.2251-80.361660412815Clb=5.6m/s t=2.0C h=-1.0% p=-1.0hPa 404.011 MHz Type=DFM17 ser=22037119 Radiosonde
KG4IFE-1D220371192022-12-06 11:37:2337.2249-80.362489442781Clb=5.1m/s t=2.1C h=-1.0% p=-1.0hPa 404.010 MHz Type=DFM17 ser=22037119 Radiosonde
KD4EG-15D220371192022-12-06 11:36:5837.2247-80.365788542660Clb=4.8m/s t=3.0C h=-1.0% p=-1.0hPa 404.011 MHz Type=DFM17 ser=22037119 Radiosonde
KG4IFE-1D220371192022-12-06 11:36:5037.2247-80.367186572625Clb=3.9m/s t=3.4C h=-1.0% p=-1.0hPa 404.010 MHz Type=DFM17 ser=22037119 Radiosonde
KD4EG-15D220371192022-12-06 11:36:2937.224-80.370564442509Clb=4.7m/s t=4.1C h=-1.0% p=-1.0hPa 404.011 MHz Type=DFM17 ser=22037119 Radiosonde
KD4EG-15D220371192022-12-06 11:36:2737.2232-80.375388392373Clb=4.4m/s t=4.9C h=-1.0% p=-1.0hPa 404.011 MHz Type=DFM17 ser=22037119 Radiosonde
KD4EG-15D220371192022-12-06 11:36:2537.2224-80.380875572191Clb=5.0m/s t=6.0C h=-1.0% p=-1.0hPa 404.011 MHz Type=DFM17 ser=22037119 Radiosonde
KD4EG-15D220371192022-12-06 11:36:2137.2211-80.385574652017Clb=4.9m/s t=6.7C h=-1.0% p=-1.0hPa 404.011 MHz Type=DFM17 ser=22037119 Radiosonde
KD4EG-15D220371192022-12-06 11:36:0937.2199-80.390685441868Clb=4.4m/s t=7.4C h=-1.0% p=-1.0hPa 404.011 MHz Type=DFM17 ser=22037119 Radiosonde
KD4EG-15D220371192022-12-06 11:35:1837.2188-80.395675631716Clb=4.6m/s t=8.1C h=-1.0% p=-1.0hPa 404.011 MHz Type=DFM17 ser=22037119 Radiosonde